<?xml version="1.0" encoding="UTF-8" standalone="no" ?>
<gpx xmlns="http://www.topografix.com/GPX/1/1" xmlns:xsi="http://www.w3.org/2001/XMLSchema-instance" xsi:schemaLocation="http://www.topografix.com/GPX/1/1 http://www.topografix.com/GPX/1/1/gpx.xsd" version="1.1" creator="VisuGPX - https://www.visugpx.com">
  <metadata>
    <name>Monnières - Mont-Roland</name>
    <desc><![CDATA[Randonnée  effectuée le 14 février 2018]]></desc>
  </metadata>
  <trk>
    <name><![CDATA[14 févr. 2018 à 08:59:40]]></name>
    <cmt><![CDATA[14 févr. 2018 à 08:59:40]]></cmt>
    <trkseg>
      <trkpt lat="47.1138" lon="5.45685">
        <ele>230</ele>
        <time>2018-02-14T07:59:43Z</time>
      </trkpt>
      <trkpt lat="47.11335" lon="5.45725">
        <ele>248</ele>
        <time>2018-02-14T07:59:45Z</time>
      </trkpt>
      <trkpt lat="47.11339" lon="5.45739">
        <ele>258</ele>
        <time>2018-02-14T07:59:47Z</time>
      </trkpt>
      <trkpt lat="47.11348" lon="5.45728">
        <ele>261</ele>
        <time>2018-02-14T07:59:50Z</time>
      </trkpt>
      <trkpt lat="47.11348" lon="5.45718">
        <ele>263</ele>
        <time>2018-02-14T08:00:49Z</time>
      </trkpt>
      <trkpt lat="47.1135" lon="5.45711">
        <ele>262</ele>
        <time>2018-02-14T08:00:53Z</time>
      </trkpt>
      <trkpt lat="47.11352" lon="5.45705">
        <ele>262</ele>
        <time>2018-02-14T08:00:58Z</time>
      </trkpt>
      <trkpt lat="47.11353" lon="5.45698">
        <ele>262</ele>
        <time>2018-02-14T08:01:03Z</time>
      </trkpt>
      <trkpt lat="47.11353" lon="5.4569">
        <ele>262</ele>
        <time>2018-02-14T08:01:07Z</time>
      </trkpt>
      <trkpt lat="47.11352" lon="5.45682">
        <ele>261</ele>
        <time>2018-02-14T08:01:12Z</time>
      </trkpt>
      <trkpt lat="47.11348" lon="5.45679">
        <ele>260</ele>
        <time>2018-02-14T08:01:19Z</time>
      </trkpt>
      <trkpt lat="47.11342" lon="5.45667">
        <ele>260</ele>
        <time>2018-02-14T08:01:28Z</time>
      </trkpt>
      <trkpt lat="47.11339" lon="5.4566">
        <ele>259</ele>
        <time>2018-02-14T08:01:32Z</time>
      </trkpt>
      <trkpt lat="47.11339" lon="5.45652">
        <ele>259</ele>
        <time>2018-02-14T08:01:36Z</time>
      </trkpt>
      <trkpt lat="47.1134" lon="5.45644">
        <ele>259</ele>
        <time>2018-02-14T08:01:40Z</time>
      </trkpt>
      <trkpt lat="47.11347" lon="5.45624">
        <ele>260</ele>
        <time>2018-02-14T08:01:52Z</time>
      </trkpt>
      <trkpt lat="47.1135" lon="5.45618">
        <ele>260</ele>
        <time>2018-02-14T08:01:56Z</time>
      </trkpt>
      <trkpt lat="47.11354" lon="5.45615">
        <ele>260</ele>
        <time>2018-02-14T08:02:00Z</time>
      </trkpt>
      <trkpt lat="47.11369" lon="5.45613">
        <ele>261</ele>
        <time>2018-02-14T08:02:16Z</time>
      </trkpt>
      <trkpt lat="47.11373" lon="5.45616">
        <ele>262</ele>
        <time>2018-02-14T08:02:31Z</time>
      </trkpt>
      <trkpt lat="47.11378" lon="5.45612">
        <ele>263</ele>
        <time>2018-02-14T08:02:36Z</time>
      </trkpt>
      <trkpt lat="47.1138" lon="5.45606">
        <ele>264</ele>
        <time>2018-02-14T08:02:40Z</time>
      </trkpt>
      <trkpt lat="47.11386" lon="5.45598">
        <ele>265</ele>
        <time>2018-02-14T08:02:53Z</time>
      </trkpt>
      <trkpt lat="47.11389" lon="5.45592">
        <ele>265</ele>
        <time>2018-02-14T08:02:57Z</time>
      </trkpt>
      <trkpt lat="47.11397" lon="5.45582">
        <ele>265</ele>
        <time>2018-02-14T08:03:05Z</time>
      </trkpt>
      <trkpt lat="47.11402" lon="5.45578">
        <ele>265</ele>
        <time>2018-02-14T08:03:10Z</time>
      </trkpt>
      <trkpt lat="47.11407" lon="5.45577">
        <ele>265</ele>
        <time>2018-02-14T08:03:14Z</time>
      </trkpt>
      <trkpt lat="47.11409" lon="5.45572">
        <ele>265</ele>
        <time>2018-02-14T08:03:18Z</time>
      </trkpt>
      <trkpt lat="47.11413" lon="5.45567">
        <ele>265</ele>
        <time>2018-02-14T08:03:22Z</time>
      </trkpt>
      <trkpt lat="47.11422" lon="5.45561">
        <ele>265</ele>
        <time>2018-02-14T08:03:30Z</time>
      </trkpt>
      <trkpt lat="47.11456" lon="5.45526">
        <ele>266</ele>
        <time>2018-02-14T08:04:04Z</time>
      </trkpt>
      <trkpt lat="47.1146" lon="5.45524">
        <ele>266</ele>
        <time>2018-02-14T08:04:07Z</time>
      </trkpt>
      <trkpt lat="47.11464" lon="5.4552">
        <ele>266</ele>
        <time>2018-02-14T08:04:11Z</time>
      </trkpt>
      <trkpt lat="47.11468" lon="5.45514">
        <ele>266</ele>
        <time>2018-02-14T08:04:16Z</time>
      </trkpt>
      <trkpt lat="47.11494" lon="5.4549">
        <ele>264</ele>
        <time>2018-02-14T08:04:40Z</time>
      </trkpt>
      <trkpt lat="47.11502" lon="5.45479">
        <ele>265</ele>
        <time>2018-02-14T08:04:53Z</time>
      </trkpt>
      <trkpt lat="47.11506" lon="5.45475">
        <ele>265</ele>
        <time>2018-02-14T08:04:58Z</time>
      </trkpt>
      <trkpt lat="47.11528" lon="5.4546">
        <ele>264</ele>
        <time>2018-02-14T08:05:17Z</time>
      </trkpt>
      <trkpt lat="47.11546" lon="5.45454">
        <ele>264</ele>
        <time>2018-02-14T08:05:37Z</time>
      </trkpt>
      <trkpt lat="47.11565" lon="5.45455">
        <ele>264</ele>
        <time>2018-02-14T08:05:52Z</time>
      </trkpt>
      <trkpt lat="47.11574" lon="5.45451">
        <ele>265</ele>
        <time>2018-02-14T08:05:59Z</time>
      </trkpt>
      <trkpt lat="47.11584" lon="5.45452">
        <ele>265</ele>
        <time>2018-02-14T08:06:07Z</time>
      </trkpt>
      <trkpt lat="47.11619" lon="5.45477">
        <ele>266</ele>
        <time>2018-02-14T08:06:38Z</time>
      </trkpt>
      <trkpt lat="47.11628" lon="5.45481">
        <ele>266</ele>
        <time>2018-02-14T08:06:47Z</time>
      </trkpt>
      <trkpt lat="47.11645" lon="5.45494">
        <ele>266</ele>
        <time>2018-02-14T08:07:03Z</time>
      </trkpt>
      <trkpt lat="47.11655" lon="5.45495">
        <ele>267</ele>
        <time>2018-02-14T08:07:11Z</time>
      </trkpt>
      <trkpt lat="47.1169" lon="5.45522">
        <ele>266</ele>
        <time>2018-02-14T08:07:42Z</time>
      </trkpt>
      <trkpt lat="47.11717" lon="5.45535">
        <ele>268</ele>
        <time>2018-02-14T08:08:04Z</time>
      </trkpt>
      <trkpt lat="47.11733" lon="5.45549">
        <ele>269</ele>
        <time>2018-02-14T08:08:19Z</time>
      </trkpt>
      <trkpt lat="47.11778" lon="5.45569">
        <ele>268</ele>
        <time>2018-02-14T08:08:56Z</time>
      </trkpt>
      <trkpt lat="47.11796" lon="5.4558">
        <ele>268</ele>
        <time>2018-02-14T08:09:11Z</time>
      </trkpt>
      <trkpt lat="47.11806" lon="5.45578">
        <ele>267</ele>
        <time>2018-02-14T08:09:19Z</time>
      </trkpt>
      <trkpt lat="47.11815" lon="5.4558">
        <ele>267</ele>
        <time>2018-02-14T08:09:25Z</time>
      </trkpt>
      <trkpt lat="47.11824" lon="5.45587">
        <ele>266</ele>
        <time>2018-02-14T08:09:33Z</time>
      </trkpt>
      <trkpt lat="47.11834" lon="5.45591">
        <ele>266</ele>
        <time>2018-02-14T08:09:42Z</time>
      </trkpt>
      <trkpt lat="47.11851" lon="5.45607">
        <ele>265</ele>
        <time>2018-02-14T08:09:57Z</time>
      </trkpt>
      <trkpt lat="47.1186" lon="5.45612">
        <ele>265</ele>
        <time>2018-02-14T08:10:05Z</time>
      </trkpt>
      <trkpt lat="47.11868" lon="5.45616">
        <ele>265</ele>
        <time>2018-02-14T08:10:12Z</time>
      </trkpt>
      <trkpt lat="47.11876" lon="5.45624">
        <ele>265</ele>
        <time>2018-02-14T08:10:19Z</time>
      </trkpt>
      <trkpt lat="47.11895" lon="5.45629">
        <ele>265</ele>
        <time>2018-02-14T08:10:34Z</time>
      </trkpt>
      <trkpt lat="47.11903" lon="5.45638">
        <ele>265</ele>
        <time>2018-02-14T08:10:43Z</time>
      </trkpt>
      <trkpt lat="47.11913" lon="5.45637">
        <ele>265</ele>
        <time>2018-02-14T08:10:50Z</time>
      </trkpt>
      <trkpt lat="47.11921" lon="5.4564">
        <ele>265</ele>
        <time>2018-02-14T08:10:57Z</time>
      </trkpt>
      <trkpt lat="47.1193" lon="5.45644">
        <ele>265</ele>
        <time>2018-02-14T08:11:04Z</time>
      </trkpt>
      <trkpt lat="47.11939" lon="5.45648">
        <ele>265</ele>
        <time>2018-02-14T08:11:12Z</time>
      </trkpt>
      <trkpt lat="47.11949" lon="5.4565">
        <ele>264</ele>
        <time>2018-02-14T08:11:19Z</time>
      </trkpt>
      <trkpt lat="47.11966" lon="5.45662">
        <ele>263</ele>
        <time>2018-02-14T08:11:35Z</time>
      </trkpt>
      <trkpt lat="47.11975" lon="5.4566">
        <ele>263</ele>
        <time>2018-02-14T08:11:43Z</time>
      </trkpt>
      <trkpt lat="47.11994" lon="5.45663">
        <ele>263</ele>
        <time>2018-02-14T08:11:58Z</time>
      </trkpt>
      <trkpt lat="47.12002" lon="5.45669">
        <ele>263</ele>
        <time>2018-02-14T08:12:04Z</time>
      </trkpt>
      <trkpt lat="47.12011" lon="5.45676">
        <ele>264</ele>
        <time>2018-02-14T08:12:12Z</time>
      </trkpt>
      <trkpt lat="47.1203" lon="5.45684">
        <ele>264</ele>
        <time>2018-02-14T08:12:27Z</time>
      </trkpt>
      <trkpt lat="47.1204" lon="5.45683">
        <ele>264</ele>
        <time>2018-02-14T08:12:34Z</time>
      </trkpt>
      <trkpt lat="47.12049" lon="5.45685">
        <ele>264</ele>
        <time>2018-02-14T08:12:41Z</time>
      </trkpt>
      <trkpt lat="47.12057" lon="5.45693">
        <ele>264</ele>
        <time>2018-02-14T08:12:48Z</time>
      </trkpt>
      <trkpt lat="47.12067" lon="5.45696">
        <ele>264</ele>
        <time>2018-02-14T08:12:56Z</time>
      </trkpt>
      <trkpt lat="47.12076" lon="5.45698">
        <ele>264</ele>
        <time>2018-02-14T08:13:04Z</time>
      </trkpt>
      <trkpt lat="47.12086" lon="5.45699">
        <ele>264</ele>
        <time>2018-02-14T08:13:12Z</time>
      </trkpt>
      <trkpt lat="47.12095" lon="5.45698">
        <ele>264</ele>
        <time>2018-02-14T08:13:22Z</time>
      </trkpt>
      <trkpt lat="47.12105" lon="5.45695">
        <ele>263</ele>
        <time>2018-02-14T08:13:30Z</time>
      </trkpt>
      <trkpt lat="47.12122" lon="5.45684">
        <ele>259</ele>
        <time>2018-02-14T08:13:43Z</time>
      </trkpt>
      <trkpt lat="47.12129" lon="5.45674">
        <ele>257</ele>
        <time>2018-02-14T08:13:50Z</time>
      </trkpt>
      <trkpt lat="47.12132" lon="5.45662">
        <ele>256</ele>
        <time>2018-02-14T08:13:58Z</time>
      </trkpt>
      <trkpt lat="47.12146" lon="5.4564">
        <ele>255</ele>
        <time>2018-02-14T08:14:16Z</time>
      </trkpt>
      <trkpt lat="47.12154" lon="5.45633">
        <ele>254</ele>
        <time>2018-02-14T08:14:25Z</time>
      </trkpt>
      <trkpt lat="47.12162" lon="5.45625">
        <ele>253</ele>
        <time>2018-02-14T08:14:33Z</time>
      </trkpt>
      <trkpt lat="47.12169" lon="5.45617">
        <ele>252</ele>
        <time>2018-02-14T08:14:40Z</time>
      </trkpt>
      <trkpt lat="47.12178" lon="5.45609">
        <ele>252</ele>
        <time>2018-02-14T08:14:47Z</time>
      </trkpt>
      <trkpt lat="47.12186" lon="5.45601">
        <ele>253</ele>
        <time>2018-02-14T08:14:54Z</time>
      </trkpt>
      <trkpt lat="47.12211" lon="5.45583">
        <ele>251</ele>
        <time>2018-02-14T08:15:15Z</time>
      </trkpt>
      <trkpt lat="47.12216" lon="5.45581">
        <ele>251</ele>
        <time>2018-02-14T08:15:20Z</time>
      </trkpt>
      <trkpt lat="47.12226" lon="5.45575">
        <ele>250</ele>
        <time>2018-02-14T08:15:27Z</time>
      </trkpt>
      <trkpt lat="47.12229" lon="5.45571">
        <ele>250</ele>
        <time>2018-02-14T08:15:31Z</time>
      </trkpt>
      <trkpt lat="47.12234" lon="5.45567">
        <ele>250</ele>
        <time>2018-02-14T08:15:35Z</time>
      </trkpt>
      <trkpt lat="47.12239" lon="5.45563">
        <ele>249</ele>
        <time>2018-02-14T08:15:39Z</time>
      </trkpt>
      <trkpt lat="47.12243" lon="5.45561">
        <ele>250</ele>
        <time>2018-02-14T08:15:42Z</time>
      </trkpt>
      <trkpt lat="47.12248" lon="5.45559">
        <ele>250</ele>
        <time>2018-02-14T08:15:46Z</time>
      </trkpt>
      <trkpt lat="47.12252" lon="5.45556">
        <ele>249</ele>
        <time>2018-02-14T08:15:51Z</time>
      </trkpt>
      <trkpt lat="47.12257" lon="5.45555">
        <ele>249</ele>
        <time>2018-02-14T08:15:56Z</time>
      </trkpt>
      <trkpt lat="47.12271" lon="5.45547">
        <ele>250</ele>
        <time>2018-02-14T08:16:10Z</time>
      </trkpt>
      <trkpt lat="47.12279" lon="5.45541">
        <ele>250</ele>
        <time>2018-02-14T08:16:18Z</time>
      </trkpt>
      <trkpt lat="47.12304" lon="5.45523">
        <ele>246</ele>
        <time>2018-02-14T08:16:39Z</time>
      </trkpt>
      <trkpt lat="47.12314" lon="5.4552">
        <ele>246</ele>
        <time>2018-02-14T08:16:47Z</time>
      </trkpt>
      <trkpt lat="47.12322" lon="5.45513">
        <ele>246</ele>
        <time>2018-02-14T08:16:54Z</time>
      </trkpt>
      <trkpt lat="47.1234" lon="5.45507">
        <ele>248</ele>
        <time>2018-02-14T08:17:10Z</time>
      </trkpt>
      <trkpt lat="47.12349" lon="5.455">
        <ele>247</ele>
        <time>2018-02-14T08:17:18Z</time>
      </trkpt>
      <trkpt lat="47.12384" lon="5.45449">
        <ele>245</ele>
        <time>2018-02-14T08:17:55Z</time>
      </trkpt>
      <trkpt lat="47.12397" lon="5.45428">
        <ele>242</ele>
        <time>2018-02-14T08:18:10Z</time>
      </trkpt>
      <trkpt lat="47.12412" lon="5.45412">
        <ele>240</ele>
        <time>2018-02-14T08:18:25Z</time>
      </trkpt>
      <trkpt lat="47.12419" lon="5.45401">
        <ele>239</ele>
        <time>2018-02-14T08:18:33Z</time>
      </trkpt>
      <trkpt lat="47.12427" lon="5.45392">
        <ele>238</ele>
        <time>2018-02-14T08:18:39Z</time>
      </trkpt>
      <trkpt lat="47.12443" lon="5.4537">
        <ele>234</ele>
        <time>2018-02-14T08:18:56Z</time>
      </trkpt>
      <trkpt lat="47.1247" lon="5.45326">
        <ele>232</ele>
        <time>2018-02-14T08:19:29Z</time>
      </trkpt>
      <trkpt lat="47.12481" lon="5.45311">
        <ele>232</ele>
        <time>2018-02-14T08:19:42Z</time>
      </trkpt>
      <trkpt lat="47.12484" lon="5.45306">
        <ele>231</ele>
        <time>2018-02-14T08:19:45Z</time>
      </trkpt>
      <trkpt lat="47.12497" lon="5.4529">
        <ele>229</ele>
        <time>2018-02-14T08:19:57Z</time>
      </trkpt>
      <trkpt lat="47.12505" lon="5.45289">
        <ele>228</ele>
        <time>2018-02-14T08:20:02Z</time>
      </trkpt>
      <trkpt lat="47.12508" lon="5.45295">
        <ele>227</ele>
        <time>2018-02-14T08:20:06Z</time>
      </trkpt>
      <trkpt lat="47.12513" lon="5.45308">
        <ele>227</ele>
        <time>2018-02-14T08:20:13Z</time>
      </trkpt>
      <trkpt lat="47.12523" lon="5.45326">
        <ele>228</ele>
        <time>2018-02-14T08:20:25Z</time>
      </trkpt>
      <trkpt lat="47.12539" lon="5.45348">
        <ele>227</ele>
        <time>2018-02-14T08:20:40Z</time>
      </trkpt>
      <trkpt lat="47.12555" lon="5.45369">
        <ele>227</ele>
        <time>2018-02-14T08:20:56Z</time>
      </trkpt>
      <trkpt lat="47.1256" lon="5.45373">
        <ele>227</ele>
        <time>2018-02-14T08:21:00Z</time>
      </trkpt>
      <trkpt lat="47.12564" lon="5.45376">
        <ele>227</ele>
        <time>2018-02-14T08:21:03Z</time>
      </trkpt>
      <trkpt lat="47.12567" lon="5.45382">
        <ele>226</ele>
        <time>2018-02-14T08:21:07Z</time>
      </trkpt>
      <trkpt lat="47.12573" lon="5.4541">
        <ele>223</ele>
        <time>2018-02-14T08:21:24Z</time>
      </trkpt>
      <trkpt lat="47.12572" lon="5.45425">
        <ele>223</ele>
        <time>2018-02-14T08:21:32Z</time>
      </trkpt>
      <trkpt lat="47.12569" lon="5.45432">
        <ele>223</ele>
        <time>2018-02-14T08:21:35Z</time>
      </trkpt>
      <trkpt lat="47.12569" lon="5.45439">
        <ele>223</ele>
        <time>2018-02-14T08:21:39Z</time>
      </trkpt>
      <trkpt lat="47.12572" lon="5.45462">
        <ele>223</ele>
        <time>2018-02-14T08:21:50Z</time>
      </trkpt>
      <trkpt lat="47.12574" lon="5.45469">
        <ele>223</ele>
        <time>2018-02-14T08:21:54Z</time>
      </trkpt>
      <trkpt lat="47.12578" lon="5.45474">
        <ele>223</ele>
        <time>2018-02-14T08:21:57Z</time>
      </trkpt>
      <trkpt lat="47.12582" lon="5.45489">
        <ele>223</ele>
        <time>2018-02-14T08:22:05Z</time>
      </trkpt>
      <trkpt lat="47.12589" lon="5.455">
        <ele>223</ele>
        <time>2018-02-14T08:22:13Z</time>
      </trkpt>
      <trkpt lat="47.12596" lon="5.4551">
        <ele>224</ele>
        <time>2018-02-14T08:22:20Z</time>
      </trkpt>
      <trkpt lat="47.12603" lon="5.45521">
        <ele>223</ele>
        <time>2018-02-14T08:22:28Z</time>
      </trkpt>
      <trkpt lat="47.12603" lon="5.45529">
        <ele>222</ele>
        <time>2018-02-14T08:22:32Z</time>
      </trkpt>
      <trkpt lat="47.12602" lon="5.45536">
        <ele>221</ele>
        <time>2018-02-14T08:22:36Z</time>
      </trkpt>
      <trkpt lat="47.12597" lon="5.4555">
        <ele>223</ele>
        <time>2018-02-14T08:22:44Z</time>
      </trkpt>
      <trkpt lat="47.12599" lon="5.45543">
        <ele>223</ele>
        <time>2018-02-14T08:22:50Z</time>
      </trkpt>
      <trkpt lat="47.12604" lon="5.45528">
        <ele>223</ele>
        <time>2018-02-14T08:22:59Z</time>
      </trkpt>
      <trkpt lat="47.12608" lon="5.45522">
        <ele>223</ele>
        <time>2018-02-14T08:23:03Z</time>
      </trkpt>
      <trkpt lat="47.12613" lon="5.4552">
        <ele>223</ele>
        <time>2018-02-14T08:23:07Z</time>
      </trkpt>
      <trkpt lat="47.12629" lon="5.45528">
        <ele>223</ele>
        <time>2018-02-14T08:23:19Z</time>
      </trkpt>
      <trkpt lat="47.12633" lon="5.45534">
        <ele>222</ele>
        <time>2018-02-14T08:23:23Z</time>
      </trkpt>
      <trkpt lat="47.12638" lon="5.45537">
        <ele>222</ele>
        <time>2018-02-14T08:23:26Z</time>
      </trkpt>
      <trkpt lat="47.12642" lon="5.45542">
        <ele>222</ele>
        <time>2018-02-14T08:23:30Z</time>
      </trkpt>
      <trkpt lat="47.1265" lon="5.45554">
        <ele>222</ele>
        <time>2018-02-14T08:23:38Z</time>
      </trkpt>
      <trkpt lat="47.12653" lon="5.45558">
        <ele>222</ele>
        <time>2018-02-14T08:23:43Z</time>
      </trkpt>
      <trkpt lat="47.12658" lon="5.4556">
        <ele>222</ele>
        <time>2018-02-14T08:23:47Z</time>
      </trkpt>
      <trkpt lat="47.12663" lon="5.4556">
        <ele>222</ele>
        <time>2018-02-14T08:23:51Z</time>
      </trkpt>
      <trkpt lat="47.12671" lon="5.45565">
        <ele>221</ele>
        <time>2018-02-14T08:24:13Z</time>
      </trkpt>
      <trkpt lat="47.12672" lon="5.45573">
        <ele>221</ele>
        <time>2018-02-14T08:24:17Z</time>
      </trkpt>
      <trkpt lat="47.12665" lon="5.45636">
        <ele>223</ele>
        <time>2018-02-14T08:24:51Z</time>
      </trkpt>
      <trkpt lat="47.12661" lon="5.45658">
        <ele>223</ele>
        <time>2018-02-14T08:25:01Z</time>
      </trkpt>
      <trkpt lat="47.12656" lon="5.45671">
        <ele>223</ele>
        <time>2018-02-14T08:25:09Z</time>
      </trkpt>
      <trkpt lat="47.12655" lon="5.45678">
        <ele>224</ele>
        <time>2018-02-14T08:25:14Z</time>
      </trkpt>
      <trkpt lat="47.12661" lon="5.45688">
        <ele>224</ele>
        <time>2018-02-14T08:25:22Z</time>
      </trkpt>
      <trkpt lat="47.12676" lon="5.45697">
        <ele>225</ele>
        <time>2018-02-14T08:25:37Z</time>
      </trkpt>
      <trkpt lat="47.1268" lon="5.45701">
        <ele>225</ele>
        <time>2018-02-14T08:25:41Z</time>
      </trkpt>
      <trkpt lat="47.1269" lon="5.45705">
        <ele>224</ele>
        <time>2018-02-14T08:25:48Z</time>
      </trkpt>
      <trkpt lat="47.1271" lon="5.45717">
        <ele>224</ele>
        <time>2018-02-14T08:26:04Z</time>
      </trkpt>
      <trkpt lat="47.12716" lon="5.45719">
        <ele>225</ele>
        <time>2018-02-14T08:26:09Z</time>
      </trkpt>
      <trkpt lat="47.1274" lon="5.45729">
        <ele>225</ele>
        <time>2018-02-14T08:26:29Z</time>
      </trkpt>
      <trkpt lat="47.1276" lon="5.45736">
        <ele>225</ele>
        <time>2018-02-14T08:26:43Z</time>
      </trkpt>
      <trkpt lat="47.1277" lon="5.45744">
        <ele>225</ele>
        <time>2018-02-14T08:26:50Z</time>
      </trkpt>
      <trkpt lat="47.12781" lon="5.45761">
        <ele>225</ele>
        <time>2018-02-14T08:27:02Z</time>
      </trkpt>
      <trkpt lat="47.12787" lon="5.45775">
        <ele>225</ele>
        <time>2018-02-14T08:27:10Z</time>
      </trkpt>
      <trkpt lat="47.12795" lon="5.45796">
        <ele>224</ele>
        <time>2018-02-14T08:27:22Z</time>
      </trkpt>
      <trkpt lat="47.12808" lon="5.45839">
        <ele>226</ele>
        <time>2018-02-14T08:27:47Z</time>
      </trkpt>
      <trkpt lat="47.12813" lon="5.45847">
        <ele>227</ele>
        <time>2018-02-14T08:28:16Z</time>
      </trkpt>
      <trkpt lat="47.12816" lon="5.45853">
        <ele>227</ele>
        <time>2018-02-14T08:28:20Z</time>
      </trkpt>
      <trkpt lat="47.12836" lon="5.45905">
        <ele>227</ele>
        <time>2018-02-14T08:28:53Z</time>
      </trkpt>
      <trkpt lat="47.12838" lon="5.45912">
        <ele>226</ele>
        <time>2018-02-14T08:28:56Z</time>
      </trkpt>
      <trkpt lat="47.12841" lon="5.45918">
        <ele>226</ele>
        <time>2018-02-14T08:29:00Z</time>
      </trkpt>
      <trkpt lat="47.12848" lon="5.4593">
        <ele>226</ele>
        <time>2018-02-14T08:29:08Z</time>
      </trkpt>
      <trkpt lat="47.12868" lon="5.45978">
        <ele>227</ele>
        <time>2018-02-14T08:29:35Z</time>
      </trkpt>
      <trkpt lat="47.12873" lon="5.45991">
        <ele>227</ele>
        <time>2018-02-14T08:29:42Z</time>
      </trkpt>
      <trkpt lat="47.12881" lon="5.46012">
        <ele>226</ele>
        <time>2018-02-14T08:29:54Z</time>
      </trkpt>
      <trkpt lat="47.12887" lon="5.46024">
        <ele>226</ele>
        <time>2018-02-14T08:30:02Z</time>
      </trkpt>
      <trkpt lat="47.12893" lon="5.46037">
        <ele>226</ele>
        <time>2018-02-14T08:30:10Z</time>
      </trkpt>
      <trkpt lat="47.12896" lon="5.46043">
        <ele>226</ele>
        <time>2018-02-14T08:30:14Z</time>
      </trkpt>
      <trkpt lat="47.12898" lon="5.46049">
        <ele>226</ele>
        <time>2018-02-14T08:30:18Z</time>
      </trkpt>
      <trkpt lat="47.12906" lon="5.46069">
        <ele>226</ele>
        <time>2018-02-14T08:30:29Z</time>
      </trkpt>
      <trkpt lat="47.12911" lon="5.46079">
        <ele>226</ele>
        <time>2018-02-14T08:30:35Z</time>
      </trkpt>
      <trkpt lat="47.12915" lon="5.46102">
        <ele>226</ele>
        <time>2018-02-14T08:30:47Z</time>
      </trkpt>
      <trkpt lat="47.12922" lon="5.46122">
        <ele>224</ele>
        <time>2018-02-14T08:31:00Z</time>
      </trkpt>
      <trkpt lat="47.12931" lon="5.46167">
        <ele>224</ele>
        <time>2018-02-14T08:31:23Z</time>
      </trkpt>
      <trkpt lat="47.12934" lon="5.46175">
        <ele>224</ele>
        <time>2018-02-14T08:31:27Z</time>
      </trkpt>
      <trkpt lat="47.12937" lon="5.4618">
        <ele>224</ele>
        <time>2018-02-14T08:31:30Z</time>
      </trkpt>
      <trkpt lat="47.12939" lon="5.46188">
        <ele>225</ele>
        <time>2018-02-14T08:31:34Z</time>
      </trkpt>
      <trkpt lat="47.1294" lon="5.46197">
        <ele>225</ele>
        <time>2018-02-14T08:31:37Z</time>
      </trkpt>
      <trkpt lat="47.12941" lon="5.46203">
        <ele>225</ele>
        <time>2018-02-14T08:31:40Z</time>
      </trkpt>
      <trkpt lat="47.12947" lon="5.46217">
        <ele>225</ele>
        <time>2018-02-14T08:31:48Z</time>
      </trkpt>
      <trkpt lat="47.12952" lon="5.4623">
        <ele>225</ele>
        <time>2018-02-14T08:31:55Z</time>
      </trkpt>
      <trkpt lat="47.12956" lon="5.46236">
        <ele>225</ele>
        <time>2018-02-14T08:31:59Z</time>
      </trkpt>
      <trkpt lat="47.12964" lon="5.46244">
        <ele>226</ele>
        <time>2018-02-14T08:32:07Z</time>
      </trkpt>
      <trkpt lat="47.12967" lon="5.46251">
        <ele>226</ele>
        <time>2018-02-14T08:32:11Z</time>
      </trkpt>
      <trkpt lat="47.12975" lon="5.4626">
        <ele>226</ele>
        <time>2018-02-14T08:32:19Z</time>
      </trkpt>
      <trkpt lat="47.12984" lon="5.46281">
        <ele>227</ele>
        <time>2018-02-14T08:32:31Z</time>
      </trkpt>
      <trkpt lat="47.12993" lon="5.463">
        <ele>228</ele>
        <time>2018-02-14T08:32:42Z</time>
      </trkpt>
      <trkpt lat="47.12996" lon="5.46307">
        <ele>229</ele>
        <time>2018-02-14T08:32:46Z</time>
      </trkpt>
      <trkpt lat="47.13023" lon="5.46355">
        <ele>229</ele>
        <time>2018-02-14T08:33:17Z</time>
      </trkpt>
      <trkpt lat="47.13034" lon="5.46383">
        <ele>230</ele>
        <time>2018-02-14T08:33:33Z</time>
      </trkpt>
      <trkpt lat="47.13038" lon="5.46385">
        <ele>231</ele>
        <time>2018-02-14T08:33:36Z</time>
      </trkpt>
      <trkpt lat="47.13042" lon="5.46392">
        <ele>231</ele>
        <time>2018-02-14T08:33:40Z</time>
      </trkpt>
      <trkpt lat="47.13062" lon="5.46437">
        <ele>234</ele>
        <time>2018-02-14T08:34:07Z</time>
      </trkpt>
      <trkpt lat="47.1307" lon="5.46455">
        <ele>233</ele>
        <time>2018-02-14T08:34:19Z</time>
      </trkpt>
      <trkpt lat="47.1308" lon="5.4648">
        <ele>231</ele>
        <time>2018-02-14T08:34:35Z</time>
      </trkpt>
      <trkpt lat="47.13086" lon="5.46503">
        <ele>231</ele>
        <time>2018-02-14T08:34:46Z</time>
      </trkpt>
      <trkpt lat="47.13088" lon="5.4651">
        <ele>231</ele>
        <time>2018-02-14T08:34:50Z</time>
      </trkpt>
      <trkpt lat="47.13096" lon="5.46529">
        <ele>232</ele>
        <time>2018-02-14T08:35:02Z</time>
      </trkpt>
      <trkpt lat="47.131" lon="5.46545">
        <ele>232</ele>
        <time>2018-02-14T08:35:10Z</time>
      </trkpt>
      <trkpt lat="47.13106" lon="5.46557">
        <ele>232</ele>
        <time>2018-02-14T08:35:18Z</time>
      </trkpt>
      <trkpt lat="47.13108" lon="5.46565">
        <ele>232</ele>
        <time>2018-02-14T08:35:22Z</time>
      </trkpt>
      <trkpt lat="47.13114" lon="5.46578">
        <ele>232</ele>
        <time>2018-02-14T08:35:30Z</time>
      </trkpt>
      <trkpt lat="47.13117" lon="5.46583">
        <ele>231</ele>
        <time>2018-02-14T08:35:34Z</time>
      </trkpt>
      <trkpt lat="47.13121" lon="5.46589">
        <ele>231</ele>
        <time>2018-02-14T08:35:40Z</time>
      </trkpt>
      <trkpt lat="47.13123" lon="5.46597">
        <ele>231</ele>
        <time>2018-02-14T08:35:44Z</time>
      </trkpt>
      <trkpt lat="47.13129" lon="5.4661">
        <ele>232</ele>
        <time>2018-02-14T08:35:52Z</time>
      </trkpt>
      <trkpt lat="47.13131" lon="5.46616">
        <ele>233</ele>
        <time>2018-02-14T08:35:56Z</time>
      </trkpt>
      <trkpt lat="47.13138" lon="5.46627">
        <ele>234</ele>
        <time>2018-02-14T08:36:04Z</time>
      </trkpt>
      <trkpt lat="47.13143" lon="5.46641">
        <ele>234</ele>
        <time>2018-02-14T08:36:12Z</time>
      </trkpt>
      <trkpt lat="47.13147" lon="5.46673">
        <ele>235</ele>
        <time>2018-02-14T08:36:28Z</time>
      </trkpt>
      <trkpt lat="47.13146" lon="5.46742">
        <ele>231</ele>
        <time>2018-02-14T08:37:02Z</time>
      </trkpt>
      <trkpt lat="47.13146" lon="5.4675">
        <ele>230</ele>
        <time>2018-02-14T08:37:06Z</time>
      </trkpt>
      <trkpt lat="47.13146" lon="5.46757">
        <ele>230</ele>
        <time>2018-02-14T08:37:10Z</time>
      </trkpt>
      <trkpt lat="47.13141" lon="5.46797">
        <ele>231</ele>
        <time>2018-02-14T08:37:31Z</time>
      </trkpt>
      <trkpt lat="47.13138" lon="5.46821">
        <ele>230</ele>
        <time>2018-02-14T08:37:43Z</time>
      </trkpt>
      <trkpt lat="47.13137" lon="5.46836">
        <ele>231</ele>
        <time>2018-02-14T08:37:51Z</time>
      </trkpt>
      <trkpt lat="47.13135" lon="5.46851">
        <ele>231</ele>
        <time>2018-02-14T08:37:59Z</time>
      </trkpt>
      <trkpt lat="47.13132" lon="5.46866">
        <ele>231</ele>
        <time>2018-02-14T08:38:08Z</time>
      </trkpt>
      <trkpt lat="47.1313" lon="5.46881">
        <ele>231</ele>
        <time>2018-02-14T08:38:16Z</time>
      </trkpt>
      <trkpt lat="47.13125" lon="5.46916">
        <ele>234</ele>
        <time>2018-02-14T08:38:36Z</time>
      </trkpt>
      <trkpt lat="47.13123" lon="5.46923">
        <ele>235</ele>
        <time>2018-02-14T08:38:40Z</time>
      </trkpt>
      <trkpt lat="47.13122" lon="5.4693">
        <ele>234</ele>
        <time>2018-02-14T08:38:44Z</time>
      </trkpt>
      <trkpt lat="47.13125" lon="5.46935">
        <ele>235</ele>
        <time>2018-02-14T08:38:48Z</time>
      </trkpt>
      <trkpt lat="47.13128" lon="5.46941">
        <ele>236</ele>
        <time>2018-02-14T08:38:53Z</time>
      </trkpt>
      <trkpt lat="47.13132" lon="5.46946">
        <ele>236</ele>
        <time>2018-02-14T08:38:58Z</time>
      </trkpt>
      <trkpt lat="47.13136" lon="5.46951">
        <ele>236</ele>
        <time>2018-02-14T08:39:02Z</time>
      </trkpt>
      <trkpt lat="47.13139" lon="5.46958">
        <ele>237</ele>
        <time>2018-02-14T08:39:06Z</time>
      </trkpt>
      <trkpt lat="47.13146" lon="5.46978">
        <ele>237</ele>
        <time>2018-02-14T08:39:16Z</time>
      </trkpt>
      <trkpt lat="47.13151" lon="5.46993">
        <ele>237</ele>
        <time>2018-02-14T08:39:24Z</time>
      </trkpt>
      <trkpt lat="47.13155" lon="5.47007">
        <ele>237</ele>
        <time>2018-02-14T08:39:31Z</time>
      </trkpt>
      <trkpt lat="47.13158" lon="5.47023">
        <ele>237</ele>
        <time>2018-02-14T08:39:39Z</time>
      </trkpt>
      <trkpt lat="47.13161" lon="5.47029">
        <ele>238</ele>
        <time>2018-02-14T08:39:43Z</time>
      </trkpt>
      <trkpt lat="47.13165" lon="5.47035">
        <ele>238</ele>
        <time>2018-02-14T08:39:47Z</time>
      </trkpt>
      <trkpt lat="47.13168" lon="5.47041">
        <ele>238</ele>
        <time>2018-02-14T08:39:51Z</time>
      </trkpt>
      <trkpt lat="47.13169" lon="5.47049">
        <ele>238</ele>
        <time>2018-02-14T08:39:55Z</time>
      </trkpt>
      <trkpt lat="47.13172" lon="5.47054">
        <ele>238</ele>
        <time>2018-02-14T08:39:59Z</time>
      </trkpt>
      <trkpt lat="47.13175" lon="5.47069">
        <ele>238</ele>
        <time>2018-02-14T08:40:07Z</time>
      </trkpt>
      <trkpt lat="47.13178" lon="5.47075">
        <ele>237</ele>
        <time>2018-02-14T08:40:11Z</time>
      </trkpt>
      <trkpt lat="47.13186" lon="5.47084">
        <ele>237</ele>
        <time>2018-02-14T08:40:19Z</time>
      </trkpt>
      <trkpt lat="47.13189" lon="5.47099">
        <ele>236</ele>
        <time>2018-02-14T08:40:26Z</time>
      </trkpt>
      <trkpt lat="47.13192" lon="5.47105">
        <ele>236</ele>
        <time>2018-02-14T08:40:30Z</time>
      </trkpt>
      <trkpt lat="47.13194" lon="5.47113">
        <ele>236</ele>
        <time>2018-02-14T08:40:35Z</time>
      </trkpt>
      <trkpt lat="47.13197" lon="5.47119">
        <ele>236</ele>
        <time>2018-02-14T08:40:39Z</time>
      </trkpt>
      <trkpt lat="47.132" lon="5.47125">
        <ele>236</ele>
        <time>2018-02-14T08:40:43Z</time>
      </trkpt>
      <trkpt lat="47.13211" lon="5.47151">
        <ele>235</ele>
        <time>2018-02-14T08:40:58Z</time>
      </trkpt>
      <trkpt lat="47.13217" lon="5.47164">
        <ele>236</ele>
        <time>2018-02-14T08:41:06Z</time>
      </trkpt>
      <trkpt lat="47.13221" lon="5.47169">
        <ele>236</ele>
        <time>2018-02-14T08:41:11Z</time>
      </trkpt>
      <trkpt lat="47.13236" lon="5.47202">
        <ele>234</ele>
        <time>2018-02-14T08:41:31Z</time>
      </trkpt>
      <trkpt lat="47.13238" lon="5.47208">
        <ele>233</ele>
        <time>2018-02-14T08:41:34Z</time>
      </trkpt>
      <trkpt lat="47.13251" lon="5.47234">
        <ele>234</ele>
        <time>2018-02-14T08:41:50Z</time>
      </trkpt>
      <trkpt lat="47.13257" lon="5.47247">
        <ele>234</ele>
        <time>2018-02-14T08:41:58Z</time>
      </trkpt>
      <trkpt lat="47.13273" lon="5.47277">
        <ele>231</ele>
        <time>2018-02-14T08:42:18Z</time>
      </trkpt>
      <trkpt lat="47.13281" lon="5.47303">
        <ele>231</ele>
        <time>2018-02-14T08:42:31Z</time>
      </trkpt>
      <trkpt lat="47.13284" lon="5.47309">
        <ele>231</ele>
        <time>2018-02-14T08:42:35Z</time>
      </trkpt>
      <trkpt lat="47.1329" lon="5.47321">
        <ele>231</ele>
        <time>2018-02-14T08:42:43Z</time>
      </trkpt>
      <trkpt lat="47.13293" lon="5.47327">
        <ele>231</ele>
        <time>2018-02-14T08:42:47Z</time>
      </trkpt>
      <trkpt lat="47.13302" lon="5.47337">
        <ele>230</ele>
        <time>2018-02-14T08:42:55Z</time>
      </trkpt>
      <trkpt lat="47.13306" lon="5.47343">
        <ele>229</ele>
        <time>2018-02-14T08:42:59Z</time>
      </trkpt>
      <trkpt lat="47.1331" lon="5.47349">
        <ele>229</ele>
        <time>2018-02-14T08:43:04Z</time>
      </trkpt>
      <trkpt lat="47.13316" lon="5.47361">
        <ele>230</ele>
        <time>2018-02-14T08:43:13Z</time>
      </trkpt>
      <trkpt lat="47.13322" lon="5.47372">
        <ele>231</ele>
        <time>2018-02-14T08:43:21Z</time>
      </trkpt>
      <trkpt lat="47.13325" lon="5.4738">
        <ele>232</ele>
        <time>2018-02-14T08:43:25Z</time>
      </trkpt>
      <trkpt lat="47.13327" lon="5.47387">
        <ele>231</ele>
        <time>2018-02-14T08:43:28Z</time>
      </trkpt>
      <trkpt lat="47.13334" lon="5.47415">
        <ele>230</ele>
        <time>2018-02-14T08:43:44Z</time>
      </trkpt>
      <trkpt lat="47.13343" lon="5.47442">
        <ele>231</ele>
        <time>2018-02-14T08:43:58Z</time>
      </trkpt>
      <trkpt lat="47.13348" lon="5.47484">
        <ele>231</ele>
        <time>2018-02-14T08:44:22Z</time>
      </trkpt>
      <trkpt lat="47.13348" lon="5.47511">
        <ele>230</ele>
        <time>2018-02-14T08:44:37Z</time>
      </trkpt>
      <trkpt lat="47.13346" lon="5.47525">
        <ele>229</ele>
        <time>2018-02-14T08:44:45Z</time>
      </trkpt>
      <trkpt lat="47.13346" lon="5.47566">
        <ele>230</ele>
        <time>2018-02-14T08:45:05Z</time>
      </trkpt>
      <trkpt lat="47.13348" lon="5.47581">
        <ele>231</ele>
        <time>2018-02-14T08:45:12Z</time>
      </trkpt>
      <trkpt lat="47.13354" lon="5.47593">
        <ele>232</ele>
        <time>2018-02-14T08:45:20Z</time>
      </trkpt>
      <trkpt lat="47.13356" lon="5.47607">
        <ele>232</ele>
        <time>2018-02-14T08:45:27Z</time>
      </trkpt>
      <trkpt lat="47.13366" lon="5.47629">
        <ele>232</ele>
        <time>2018-02-14T08:45:41Z</time>
      </trkpt>
      <trkpt lat="47.13374" lon="5.4767">
        <ele>229</ele>
        <time>2018-02-14T08:46:04Z</time>
      </trkpt>
      <trkpt lat="47.13377" lon="5.47683">
        <ele>229</ele>
        <time>2018-02-14T08:46:12Z</time>
      </trkpt>
      <trkpt lat="47.13385" lon="5.47708">
        <ele>230</ele>
        <time>2018-02-14T08:46:27Z</time>
      </trkpt>
      <trkpt lat="47.13393" lon="5.47716">
        <ele>229</ele>
        <time>2018-02-14T08:47:49Z</time>
      </trkpt>
      <trkpt lat="47.13399" lon="5.47716">
        <ele>229</ele>
        <time>2018-02-14T08:48:55Z</time>
      </trkpt>
      <trkpt lat="47.13403" lon="5.47752">
        <ele>222</ele>
        <time>2018-02-14T08:53:06Z</time>
      </trkpt>
      <trkpt lat="47.13403" lon="5.47767">
        <ele>220</ele>
        <time>2018-02-14T08:53:12Z</time>
      </trkpt>
      <trkpt lat="47.13407" lon="5.4778">
        <ele>219</ele>
        <time>2018-02-14T08:53:19Z</time>
      </trkpt>
      <trkpt lat="47.13411" lon="5.47793">
        <ele>219</ele>
        <time>2018-02-14T08:53:27Z</time>
      </trkpt>
      <trkpt lat="47.13419" lon="5.47802">
        <ele>219</ele>
        <time>2018-02-14T08:53:36Z</time>
      </trkpt>
      <trkpt lat="47.13424" lon="5.47814">
        <ele>220</ele>
        <time>2018-02-14T08:53:44Z</time>
      </trkpt>
      <trkpt lat="47.13429" lon="5.4784">
        <ele>220</ele>
        <time>2018-02-14T08:53:57Z</time>
      </trkpt>
      <trkpt lat="47.13433" lon="5.47852">
        <ele>220</ele>
        <time>2018-02-14T08:54:04Z</time>
      </trkpt>
      <trkpt lat="47.13436" lon="5.47866">
        <ele>219</ele>
        <time>2018-02-14T08:54:12Z</time>
      </trkpt>
      <trkpt lat="47.13443" lon="5.47891">
        <ele>219</ele>
        <time>2018-02-14T08:54:25Z</time>
      </trkpt>
      <trkpt lat="47.13449" lon="5.47905">
        <ele>219</ele>
        <time>2018-02-14T08:54:33Z</time>
      </trkpt>
      <trkpt lat="47.1345" lon="5.47912">
        <ele>219</ele>
        <time>2018-02-14T08:54:36Z</time>
      </trkpt>
      <trkpt lat="47.13452" lon="5.47917">
        <ele>218</ele>
        <time>2018-02-14T08:54:39Z</time>
      </trkpt>
      <trkpt lat="47.13458" lon="5.47939">
        <ele>218</ele>
        <time>2018-02-14T08:54:50Z</time>
      </trkpt>
      <trkpt lat="47.13473" lon="5.47989">
        <ele>215</ele>
        <time>2018-02-14T08:55:16Z</time>
      </trkpt>
      <trkpt lat="47.13475" lon="5.47997">
        <ele>215</ele>
        <time>2018-02-14T08:55:20Z</time>
      </trkpt>
      <trkpt lat="47.1348" lon="5.48012">
        <ele>216</ele>
        <time>2018-02-14T08:55:28Z</time>
      </trkpt>
      <trkpt lat="47.13493" lon="5.48038">
        <ele>217</ele>
        <time>2018-02-14T08:55:44Z</time>
      </trkpt>
      <trkpt lat="47.135" lon="5.4805">
        <ele>216</ele>
        <time>2018-02-14T08:55:52Z</time>
      </trkpt>
      <trkpt lat="47.13503" lon="5.48065">
        <ele>215</ele>
        <time>2018-02-14T08:56:00Z</time>
      </trkpt>
      <trkpt lat="47.13506" lon="5.48095">
        <ele>214</ele>
        <time>2018-02-14T08:56:18Z</time>
      </trkpt>
      <trkpt lat="47.13508" lon="5.48157">
        <ele>218</ele>
        <time>2018-02-14T08:56:50Z</time>
      </trkpt>
      <trkpt lat="47.13508" lon="5.48171">
        <ele>218</ele>
        <time>2018-02-14T08:56:57Z</time>
      </trkpt>
      <trkpt lat="47.13509" lon="5.48179">
        <ele>219</ele>
        <time>2018-02-14T08:57:01Z</time>
      </trkpt>
      <trkpt lat="47.13511" lon="5.48232">
        <ele>225</ele>
        <time>2018-02-14T08:57:33Z</time>
      </trkpt>
      <trkpt lat="47.1351" lon="5.48241">
        <ele>226</ele>
        <time>2018-02-14T08:57:37Z</time>
      </trkpt>
      <trkpt lat="47.13513" lon="5.48264">
        <ele>228</ele>
        <time>2018-02-14T08:57:52Z</time>
      </trkpt>
      <trkpt lat="47.13511" lon="5.48322">
        <ele>231</ele>
        <time>2018-02-14T08:58:25Z</time>
      </trkpt>
      <trkpt lat="47.1351" lon="5.48337">
        <ele>232</ele>
        <time>2018-02-14T08:58:32Z</time>
      </trkpt>
      <trkpt lat="47.13509" lon="5.48345">
        <ele>232</ele>
        <time>2018-02-14T08:58:36Z</time>
      </trkpt>
      <trkpt lat="47.13508" lon="5.48367">
        <ele>234</ele>
        <time>2018-02-14T08:58:48Z</time>
      </trkpt>
      <trkpt lat="47.13509" lon="5.4839">
        <ele>236</ele>
        <time>2018-02-14T08:59:02Z</time>
      </trkpt>
      <trkpt lat="47.13508" lon="5.4842">
        <ele>237</ele>
        <time>2018-02-14T08:59:18Z</time>
      </trkpt>
      <trkpt lat="47.1351" lon="5.48441">
        <ele>239</ele>
        <time>2018-02-14T08:59:29Z</time>
      </trkpt>
      <trkpt lat="47.1351" lon="5.48463">
        <ele>241</ele>
        <time>2018-02-14T08:59:42Z</time>
      </trkpt>
      <trkpt lat="47.13511" lon="5.48478">
        <ele>242</ele>
        <time>2018-02-14T08:59:51Z</time>
      </trkpt>
      <trkpt lat="47.13509" lon="5.48499">
        <ele>242</ele>
        <time>2018-02-14T09:00:02Z</time>
      </trkpt>
      <trkpt lat="47.13505" lon="5.48561">
        <ele>247</ele>
        <time>2018-02-14T09:00:35Z</time>
      </trkpt>
      <trkpt lat="47.13505" lon="5.48569">
        <ele>247</ele>
        <time>2018-02-14T09:00:40Z</time>
      </trkpt>
      <trkpt lat="47.13506" lon="5.48606">
        <ele>250</ele>
        <time>2018-02-14T09:01:04Z</time>
      </trkpt>
      <trkpt lat="47.13504" lon="5.48621">
        <ele>250</ele>
        <time>2018-02-14T09:01:12Z</time>
      </trkpt>
      <trkpt lat="47.13502" lon="5.48642">
        <ele>252</ele>
        <time>2018-02-14T09:01:24Z</time>
      </trkpt>
      <trkpt lat="47.13503" lon="5.48656">
        <ele>253</ele>
        <time>2018-02-14T09:01:32Z</time>
      </trkpt>
      <trkpt lat="47.13497" lon="5.4871">
        <ele>259</ele>
        <time>2018-02-14T09:02:07Z</time>
      </trkpt>
      <trkpt lat="47.13491" lon="5.48741">
        <ele>263</ele>
        <time>2018-02-14T09:02:24Z</time>
      </trkpt>
      <trkpt lat="47.13491" lon="5.48785">
        <ele>266</ele>
        <time>2018-02-14T09:02:49Z</time>
      </trkpt>
      <trkpt lat="47.1349" lon="5.48792">
        <ele>266</ele>
        <time>2018-02-14T09:02:53Z</time>
      </trkpt>
      <trkpt lat="47.13484" lon="5.48794">
        <ele>268</ele>
        <time>2018-02-14T09:03:07Z</time>
      </trkpt>
      <trkpt lat="47.13479" lon="5.48782">
        <ele>269</ele>
        <time>2018-02-14T09:03:15Z</time>
      </trkpt>
      <trkpt lat="47.1347" lon="5.48756">
        <ele>271</ele>
        <time>2018-02-14T09:03:32Z</time>
      </trkpt>
      <trkpt lat="47.13452" lon="5.48705">
        <ele>277</ele>
        <time>2018-02-14T09:04:06Z</time>
      </trkpt>
      <trkpt lat="47.13447" lon="5.48692">
        <ele>278</ele>
        <time>2018-02-14T09:04:14Z</time>
      </trkpt>
      <trkpt lat="47.13444" lon="5.48686">
        <ele>278</ele>
        <time>2018-02-14T09:04:18Z</time>
      </trkpt>
      <trkpt lat="47.13441" lon="5.48681">
        <ele>279</ele>
        <time>2018-02-14T09:04:22Z</time>
      </trkpt>
      <trkpt lat="47.13428" lon="5.48641">
        <ele>281</ele>
        <time>2018-02-14T09:04:49Z</time>
      </trkpt>
      <trkpt lat="47.13425" lon="5.48603">
        <ele>284</ele>
        <time>2018-02-14T09:05:09Z</time>
      </trkpt>
      <trkpt lat="47.13423" lon="5.48596">
        <ele>285</ele>
        <time>2018-02-14T09:05:13Z</time>
      </trkpt>
      <trkpt lat="47.13419" lon="5.48555">
        <ele>287</ele>
        <time>2018-02-14T09:05:38Z</time>
      </trkpt>
      <trkpt lat="47.13416" lon="5.4854">
        <ele>289</ele>
        <time>2018-02-14T09:05:46Z</time>
      </trkpt>
      <trkpt lat="47.13409" lon="5.48494">
        <ele>290</ele>
        <time>2018-02-14T09:06:14Z</time>
      </trkpt>
      <trkpt lat="47.13402" lon="5.48475">
        <ele>290</ele>
        <time>2018-02-14T09:06:30Z</time>
      </trkpt>
      <trkpt lat="47.13396" lon="5.48463">
        <ele>290</ele>
        <time>2018-02-14T09:06:42Z</time>
      </trkpt>
      <trkpt lat="47.13393" lon="5.48457">
        <ele>291</ele>
        <time>2018-02-14T09:06:45Z</time>
      </trkpt>
      <trkpt lat="47.13389" lon="5.48452">
        <ele>291</ele>
        <time>2018-02-14T09:06:50Z</time>
      </trkpt>
      <trkpt lat="47.13385" lon="5.48447">
        <ele>293</ele>
        <time>2018-02-14T09:11:02Z</time>
      </trkpt>
      <trkpt lat="47.13377" lon="5.48412">
        <ele>296</ele>
        <time>2018-02-14T09:13:11Z</time>
      </trkpt>
      <trkpt lat="47.13377" lon="5.48404">
        <ele>297</ele>
        <time>2018-02-14T09:13:15Z</time>
      </trkpt>
      <trkpt lat="47.13377" lon="5.4839">
        <ele>296</ele>
        <time>2018-02-14T09:13:24Z</time>
      </trkpt>
      <trkpt lat="47.13375" lon="5.48375">
        <ele>296</ele>
        <time>2018-02-14T09:13:32Z</time>
      </trkpt>
      <trkpt lat="47.13372" lon="5.48361">
        <ele>296</ele>
        <time>2018-02-14T09:13:40Z</time>
      </trkpt>
      <trkpt lat="47.13368" lon="5.48354">
        <ele>296</ele>
        <time>2018-02-14T09:13:44Z</time>
      </trkpt>
      <trkpt lat="47.13364" lon="5.4834">
        <ele>296</ele>
        <time>2018-02-14T09:13:52Z</time>
      </trkpt>
      <trkpt lat="47.13342" lon="5.48292">
        <ele>292</ele>
        <time>2018-02-14T09:14:24Z</time>
      </trkpt>
      <trkpt lat="47.13334" lon="5.48266">
        <ele>293</ele>
        <time>2018-02-14T09:14:40Z</time>
      </trkpt>
      <trkpt lat="47.13324" lon="5.48242">
        <ele>293</ele>
        <time>2018-02-14T09:14:56Z</time>
      </trkpt>
      <trkpt lat="47.13316" lon="5.48216">
        <ele>292</ele>
        <time>2018-02-14T09:15:11Z</time>
      </trkpt>
      <trkpt lat="47.13302" lon="5.48196">
        <ele>290</ele>
        <time>2018-02-14T09:15:26Z</time>
      </trkpt>
      <trkpt lat="47.13295" lon="5.48187">
        <ele>291</ele>
        <time>2018-02-14T09:15:35Z</time>
      </trkpt>
      <trkpt lat="47.13288" lon="5.48177">
        <ele>290</ele>
        <time>2018-02-14T09:15:41Z</time>
      </trkpt>
      <trkpt lat="47.13284" lon="5.48171">
        <ele>289</ele>
        <time>2018-02-14T09:15:45Z</time>
      </trkpt>
      <trkpt lat="47.13281" lon="5.48164">
        <ele>288</ele>
        <time>2018-02-14T09:15:50Z</time>
      </trkpt>
      <trkpt lat="47.13274" lon="5.48151">
        <ele>287</ele>
        <time>2018-02-14T09:15:59Z</time>
      </trkpt>
      <trkpt lat="47.13266" lon="5.4814">
        <ele>288</ele>
        <time>2018-02-14T09:16:07Z</time>
      </trkpt>
      <trkpt lat="47.13263" lon="5.48135">
        <ele>288</ele>
        <time>2018-02-14T09:16:11Z</time>
      </trkpt>
      <trkpt lat="47.13259" lon="5.48129">
        <ele>289</ele>
        <time>2018-02-14T09:16:15Z</time>
      </trkpt>
      <trkpt lat="47.13256" lon="5.48122">
        <ele>288</ele>
        <time>2018-02-14T09:16:19Z</time>
      </trkpt>
      <trkpt lat="47.13249" lon="5.48111">
        <ele>287</ele>
        <time>2018-02-14T09:16:27Z</time>
      </trkpt>
      <trkpt lat="47.13246" lon="5.48104">
        <ele>287</ele>
        <time>2018-02-14T09:16:31Z</time>
      </trkpt>
      <trkpt lat="47.13245" lon="5.48095">
        <ele>287</ele>
        <time>2018-02-14T09:16:35Z</time>
      </trkpt>
      <trkpt lat="47.13245" lon="5.48087">
        <ele>287</ele>
        <time>2018-02-14T09:16:39Z</time>
      </trkpt>
      <trkpt lat="47.13247" lon="5.48081">
        <ele>287</ele>
        <time>2018-02-14T09:16:42Z</time>
      </trkpt>
      <trkpt lat="47.13247" lon="5.48074">
        <ele>286</ele>
        <time>2018-02-14T09:16:46Z</time>
      </trkpt>
      <trkpt lat="47.13238" lon="5.48058">
        <ele>286</ele>
        <time>2018-02-14T09:16:56Z</time>
      </trkpt>
      <trkpt lat="47.13232" lon="5.48031">
        <ele>287</ele>
        <time>2018-02-14T09:17:13Z</time>
      </trkpt>
      <trkpt lat="47.13234" lon="5.48018">
        <ele>288</ele>
        <time>2018-02-14T09:17:20Z</time>
      </trkpt>
      <trkpt lat="47.13233" lon="5.48004">
        <ele>289</ele>
        <time>2018-02-14T09:17:27Z</time>
      </trkpt>
      <trkpt lat="47.13228" lon="5.47992">
        <ele>291</ele>
        <time>2018-02-14T09:17:36Z</time>
      </trkpt>
      <trkpt lat="47.13223" lon="5.47979">
        <ele>292</ele>
        <time>2018-02-14T09:17:47Z</time>
      </trkpt>
      <trkpt lat="47.13216" lon="5.4797">
        <ele>293</ele>
        <time>2018-02-14T09:17:55Z</time>
      </trkpt>
      <trkpt lat="47.1321" lon="5.47959">
        <ele>293</ele>
        <time>2018-02-14T09:18:02Z</time>
      </trkpt>
      <trkpt lat="47.13201" lon="5.47951">
        <ele>293</ele>
        <time>2018-02-14T09:18:11Z</time>
      </trkpt>
      <trkpt lat="47.13179" lon="5.4792">
        <ele>297</ele>
        <time>2018-02-14T09:18:43Z</time>
      </trkpt>
      <trkpt lat="47.13158" lon="5.47893">
        <ele>300</ele>
        <time>2018-02-14T09:19:14Z</time>
      </trkpt>
      <trkpt lat="47.13134" lon="5.47872">
        <ele>304</ele>
        <time>2018-02-14T09:19:39Z</time>
      </trkpt>
      <trkpt lat="47.13127" lon="5.47862">
        <ele>304</ele>
        <time>2018-02-14T09:19:46Z</time>
      </trkpt>
      <trkpt lat="47.13112" lon="5.47845">
        <ele>306</ele>
        <time>2018-02-14T09:20:04Z</time>
      </trkpt>
      <trkpt lat="47.13103" lon="5.47839">
        <ele>308</ele>
        <time>2018-02-14T09:20:17Z</time>
      </trkpt>
      <trkpt lat="47.13076" lon="5.47798">
        <ele>309</ele>
        <time>2018-02-14T09:20:53Z</time>
      </trkpt>
      <trkpt lat="47.1307" lon="5.47794">
        <ele>310</ele>
        <time>2018-02-14T09:20:59Z</time>
      </trkpt>
      <trkpt lat="47.13065" lon="5.47794">
        <ele>310</ele>
        <time>2018-02-14T09:21:04Z</time>
      </trkpt>
      <trkpt lat="47.1306" lon="5.47797">
        <ele>309</ele>
        <time>2018-02-14T09:21:11Z</time>
      </trkpt>
      <trkpt lat="47.13056" lon="5.47797">
        <ele>309</ele>
        <time>2018-02-14T09:21:16Z</time>
      </trkpt>
      <trkpt lat="47.1305" lon="5.47797">
        <ele>309</ele>
        <time>2018-02-14T09:21:23Z</time>
      </trkpt>
      <trkpt lat="47.13046" lon="5.47791">
        <ele>309</ele>
        <time>2018-02-14T09:21:27Z</time>
      </trkpt>
      <trkpt lat="47.13036" lon="5.47785">
        <ele>309</ele>
        <time>2018-02-14T09:21:36Z</time>
      </trkpt>
      <trkpt lat="47.1303" lon="5.47774">
        <ele>311</ele>
        <time>2018-02-14T09:21:44Z</time>
      </trkpt>
      <trkpt lat="47.13029" lon="5.47767">
        <ele>311</ele>
        <time>2018-02-14T09:21:49Z</time>
      </trkpt>
      <trkpt lat="47.13023" lon="5.47755">
        <ele>312</ele>
        <time>2018-02-14T09:21:59Z</time>
      </trkpt>
      <trkpt lat="47.13019" lon="5.47751">
        <ele>312</ele>
        <time>2018-02-14T09:22:03Z</time>
      </trkpt>
      <trkpt lat="47.13013" lon="5.47747">
        <ele>312</ele>
        <time>2018-02-14T09:22:10Z</time>
      </trkpt>
      <trkpt lat="47.13005" lon="5.47737">
        <ele>312</ele>
        <time>2018-02-14T09:22:19Z</time>
      </trkpt>
      <trkpt lat="47.13001" lon="5.47733">
        <ele>313</ele>
        <time>2018-02-14T09:22:23Z</time>
      </trkpt>
      <trkpt lat="47.12989" lon="5.47722">
        <ele>314</ele>
        <time>2018-02-14T09:22:36Z</time>
      </trkpt>
      <trkpt lat="47.12984" lon="5.47719">
        <ele>315</ele>
        <time>2018-02-14T09:22:41Z</time>
      </trkpt>
      <trkpt lat="47.1298" lon="5.47715">
        <ele>316</ele>
        <time>2018-02-14T09:22:47Z</time>
      </trkpt>
      <trkpt lat="47.12971" lon="5.47711">
        <ele>317</ele>
        <time>2018-02-14T09:22:57Z</time>
      </trkpt>
      <trkpt lat="47.12967" lon="5.47706">
        <ele>319</ele>
        <time>2018-02-14T09:23:02Z</time>
      </trkpt>
      <trkpt lat="47.12958" lon="5.47697">
        <ele>320</ele>
        <time>2018-02-14T09:23:12Z</time>
      </trkpt>
      <trkpt lat="47.12954" lon="5.47692">
        <ele>320</ele>
        <time>2018-02-14T09:23:17Z</time>
      </trkpt>
      <trkpt lat="47.12949" lon="5.47689">
        <ele>320</ele>
        <time>2018-02-14T09:23:23Z</time>
      </trkpt>
      <trkpt lat="47.1294" lon="5.47685">
        <ele>322</ele>
        <time>2018-02-14T09:23:35Z</time>
      </trkpt>
      <trkpt lat="47.12931" lon="5.47687">
        <ele>322</ele>
        <time>2018-02-14T09:23:45Z</time>
      </trkpt>
      <trkpt lat="47.12926" lon="5.47688">
        <ele>323</ele>
        <time>2018-02-14T09:23:50Z</time>
      </trkpt>
      <trkpt lat="47.1292" lon="5.47687">
        <ele>323</ele>
        <time>2018-02-14T09:23:55Z</time>
      </trkpt>
      <trkpt lat="47.12906" lon="5.47683">
        <ele>322</ele>
        <time>2018-02-14T09:24:08Z</time>
      </trkpt>
      <trkpt lat="47.12902" lon="5.47679">
        <ele>322</ele>
        <time>2018-02-14T09:24:13Z</time>
      </trkpt>
      <trkpt lat="47.12897" lon="5.47675">
        <ele>325</ele>
        <time>2018-02-14T09:24:20Z</time>
      </trkpt>
      <trkpt lat="47.12892" lon="5.47674">
        <ele>325</ele>
        <time>2018-02-14T09:24:26Z</time>
      </trkpt>
      <trkpt lat="47.12887" lon="5.47675">
        <ele>326</ele>
        <time>2018-02-14T09:24:31Z</time>
      </trkpt>
      <trkpt lat="47.12872" lon="5.47681">
        <ele>327</ele>
        <time>2018-02-14T09:24:44Z</time>
      </trkpt>
      <trkpt lat="47.12867" lon="5.47682">
        <ele>328</ele>
        <time>2018-02-14T09:24:48Z</time>
      </trkpt>
      <trkpt lat="47.12843" lon="5.47688">
        <ele>327</ele>
        <time>2018-02-14T09:25:08Z</time>
      </trkpt>
      <trkpt lat="47.12838" lon="5.47688">
        <ele>328</ele>
        <time>2018-02-14T09:25:13Z</time>
      </trkpt>
      <trkpt lat="47.12828" lon="5.47694">
        <ele>329</ele>
        <time>2018-02-14T09:25:23Z</time>
      </trkpt>
      <trkpt lat="47.12818" lon="5.47695">
        <ele>329</ele>
        <time>2018-02-14T09:25:32Z</time>
      </trkpt>
      <trkpt lat="47.12795" lon="5.47688">
        <ele>334</ele>
        <time>2018-02-14T09:26:02Z</time>
      </trkpt>
      <trkpt lat="47.12789" lon="5.47683">
        <ele>335</ele>
        <time>2018-02-14T09:26:13Z</time>
      </trkpt>
      <trkpt lat="47.12792" lon="5.47678">
        <ele>336</ele>
        <time>2018-02-14T09:26:27Z</time>
      </trkpt>
      <trkpt lat="47.12798" lon="5.47668">
        <ele>335</ele>
        <time>2018-02-14T09:26:45Z</time>
      </trkpt>
      <trkpt lat="47.12801" lon="5.47663">
        <ele>336</ele>
        <time>2018-02-14T09:26:51Z</time>
      </trkpt>
      <trkpt lat="47.12793" lon="5.47673">
        <ele>337</ele>
        <time>2018-02-14T09:27:48Z</time>
      </trkpt>
      <trkpt lat="47.12793" lon="5.47673">
        <ele>336</ele>
        <time>2018-02-14T09:31:30Z</time>
      </trkpt>
      <trkpt lat="47.12799" lon="5.47661">
        <ele>336</ele>
        <time>2018-02-14T09:31:39Z</time>
      </trkpt>
      <trkpt lat="47.12805" lon="5.4765">
        <ele>337</ele>
        <time>2018-02-14T09:31:47Z</time>
      </trkpt>
      <trkpt lat="47.12816" lon="5.47612">
        <ele>338</ele>
        <time>2018-02-14T09:32:09Z</time>
      </trkpt>
      <trkpt lat="47.12816" lon="5.47584">
        <ele>338</ele>
        <time>2018-02-14T09:32:25Z</time>
      </trkpt>
      <trkpt lat="47.12803" lon="5.47563">
        <ele>337</ele>
        <time>2018-02-14T09:32:40Z</time>
      </trkpt>
      <trkpt lat="47.12795" lon="5.47554">
        <ele>337</ele>
        <time>2018-02-14T09:32:47Z</time>
      </trkpt>
      <trkpt lat="47.12782" lon="5.47534">
        <ele>339</ele>
        <time>2018-02-14T09:33:00Z</time>
      </trkpt>
      <trkpt lat="47.12776" lon="5.47522">
        <ele>339</ele>
        <time>2018-02-14T09:33:07Z</time>
      </trkpt>
      <trkpt lat="47.12771" lon="5.47511">
        <ele>338</ele>
        <time>2018-02-14T09:33:13Z</time>
      </trkpt>
      <trkpt lat="47.12744" lon="5.47491">
        <ele>335</ele>
        <time>2018-02-14T09:33:36Z</time>
      </trkpt>
      <trkpt lat="47.12697" lon="5.47478">
        <ele>333</ele>
        <time>2018-02-14T09:34:13Z</time>
      </trkpt>
      <trkpt lat="47.12683" lon="5.47482">
        <ele>333</ele>
        <time>2018-02-14T09:34:24Z</time>
      </trkpt>
      <trkpt lat="47.12678" lon="5.47484">
        <ele>333</ele>
        <time>2018-02-14T09:34:28Z</time>
      </trkpt>
      <trkpt lat="47.12674" lon="5.47488">
        <ele>333</ele>
        <time>2018-02-14T09:34:32Z</time>
      </trkpt>
      <trkpt lat="47.12671" lon="5.47494">
        <ele>333</ele>
        <time>2018-02-14T09:34:36Z</time>
      </trkpt>
      <trkpt lat="47.12668" lon="5.475">
        <ele>333</ele>
        <time>2018-02-14T09:34:42Z</time>
      </trkpt>
      <trkpt lat="47.12661" lon="5.47509">
        <ele>335</ele>
        <time>2018-02-14T09:34:50Z</time>
      </trkpt>
      <trkpt lat="47.12656" lon="5.47512">
        <ele>335</ele>
        <time>2018-02-14T09:34:55Z</time>
      </trkpt>
      <trkpt lat="47.1264" lon="5.47511">
        <ele>335</ele>
        <time>2018-02-14T09:35:06Z</time>
      </trkpt>
      <trkpt lat="47.12635" lon="5.47509">
        <ele>334</ele>
        <time>2018-02-14T09:35:11Z</time>
      </trkpt>
      <trkpt lat="47.12631" lon="5.47503">
        <ele>334</ele>
        <time>2018-02-14T09:35:16Z</time>
      </trkpt>
      <trkpt lat="47.12626" lon="5.47502">
        <ele>333</ele>
        <time>2018-02-14T09:35:20Z</time>
      </trkpt>
      <trkpt lat="47.12621" lon="5.47498">
        <ele>333</ele>
        <time>2018-02-14T09:35:24Z</time>
      </trkpt>
      <trkpt lat="47.12616" lon="5.47497">
        <ele>333</ele>
        <time>2018-02-14T09:35:30Z</time>
      </trkpt>
      <trkpt lat="47.12606" lon="5.47494">
        <ele>333</ele>
        <time>2018-02-14T09:35:37Z</time>
      </trkpt>
      <trkpt lat="47.12596" lon="5.47492">
        <ele>333</ele>
        <time>2018-02-14T09:35:44Z</time>
      </trkpt>
      <trkpt lat="47.12587" lon="5.47495">
        <ele>333</ele>
        <time>2018-02-14T09:35:50Z</time>
      </trkpt>
      <trkpt lat="47.12578" lon="5.47491">
        <ele>334</ele>
        <time>2018-02-14T09:35:57Z</time>
      </trkpt>
      <trkpt lat="47.12569" lon="5.47492">
        <ele>334</ele>
        <time>2018-02-14T09:36:06Z</time>
      </trkpt>
      <trkpt lat="47.12552" lon="5.47501">
        <ele>335</ele>
        <time>2018-02-14T09:36:19Z</time>
      </trkpt>
      <trkpt lat="47.12524" lon="5.4749">
        <ele>338</ele>
        <time>2018-02-14T09:36:43Z</time>
      </trkpt>
      <trkpt lat="47.12495" lon="5.47491">
        <ele>343</ele>
        <time>2018-02-14T09:37:06Z</time>
      </trkpt>
      <trkpt lat="47.12486" lon="5.47485">
        <ele>344</ele>
        <time>2018-02-14T09:37:15Z</time>
      </trkpt>
      <trkpt lat="47.12481" lon="5.47481">
        <ele>343</ele>
        <time>2018-02-14T09:37:19Z</time>
      </trkpt>
      <trkpt lat="47.12477" lon="5.47476">
        <ele>343</ele>
        <time>2018-02-14T09:37:23Z</time>
      </trkpt>
      <trkpt lat="47.12476" lon="5.4747">
        <ele>342</ele>
        <time>2018-02-14T09:37:27Z</time>
      </trkpt>
      <trkpt lat="47.12476" lon="5.47462">
        <ele>342</ele>
        <time>2018-02-14T09:37:31Z</time>
      </trkpt>
      <trkpt lat="47.12477" lon="5.47455">
        <ele>343</ele>
        <time>2018-02-14T09:37:37Z</time>
      </trkpt>
      <trkpt lat="47.12479" lon="5.47449">
        <ele>343</ele>
        <time>2018-02-14T09:37:41Z</time>
      </trkpt>
      <trkpt lat="47.12487" lon="5.47421">
        <ele>345</ele>
        <time>2018-02-14T09:37:57Z</time>
      </trkpt>
      <trkpt lat="47.12495" lon="5.47393">
        <ele>342</ele>
        <time>2018-02-14T09:38:13Z</time>
      </trkpt>
      <trkpt lat="47.12495" lon="5.47385">
        <ele>342</ele>
        <time>2018-02-14T09:38:18Z</time>
      </trkpt>
      <trkpt lat="47.12498" lon="5.47378">
        <ele>341</ele>
        <time>2018-02-14T09:38:23Z</time>
      </trkpt>
      <trkpt lat="47.12498" lon="5.47371">
        <ele>341</ele>
        <time>2018-02-14T09:38:27Z</time>
      </trkpt>
      <trkpt lat="47.12507" lon="5.4733">
        <ele>339</ele>
        <time>2018-02-14T09:38:52Z</time>
      </trkpt>
      <trkpt lat="47.12508" lon="5.47315">
        <ele>338</ele>
        <time>2018-02-14T09:39:00Z</time>
      </trkpt>
      <trkpt lat="47.12511" lon="5.47301">
        <ele>338</ele>
        <time>2018-02-14T09:39:10Z</time>
      </trkpt>
      <trkpt lat="47.1251" lon="5.47293">
        <ele>337</ele>
        <time>2018-02-14T09:39:15Z</time>
      </trkpt>
      <trkpt lat="47.12504" lon="5.47281">
        <ele>337</ele>
        <time>2018-02-14T09:39:22Z</time>
      </trkpt>
      <trkpt lat="47.12501" lon="5.47275">
        <ele>337</ele>
        <time>2018-02-14T09:39:27Z</time>
      </trkpt>
      <trkpt lat="47.12497" lon="5.4726">
        <ele>336</ele>
        <time>2018-02-14T09:39:35Z</time>
      </trkpt>
      <trkpt lat="47.12495" lon="5.47253">
        <ele>337</ele>
        <time>2018-02-14T09:39:39Z</time>
      </trkpt>
      <trkpt lat="47.12495" lon="5.47245">
        <ele>337</ele>
        <time>2018-02-14T09:39:43Z</time>
      </trkpt>
      <trkpt lat="47.12494" lon="5.47231">
        <ele>337</ele>
        <time>2018-02-14T09:39:51Z</time>
      </trkpt>
      <trkpt lat="47.12493" lon="5.47224">
        <ele>336</ele>
        <time>2018-02-14T09:39:55Z</time>
      </trkpt>
      <trkpt lat="47.12495" lon="5.47211">
        <ele>337</ele>
        <time>2018-02-14T09:40:03Z</time>
      </trkpt>
      <trkpt lat="47.12497" lon="5.47203">
        <ele>336</ele>
        <time>2018-02-14T09:40:07Z</time>
      </trkpt>
      <trkpt lat="47.12504" lon="5.47159">
        <ele>331</ele>
        <time>2018-02-14T09:40:31Z</time>
      </trkpt>
      <trkpt lat="47.12505" lon="5.47144">
        <ele>331</ele>
        <time>2018-02-14T09:40:39Z</time>
      </trkpt>
      <trkpt lat="47.12505" lon="5.47136">
        <ele>331</ele>
        <time>2018-02-14T09:40:44Z</time>
      </trkpt>
      <trkpt lat="47.12505" lon="5.47115">
        <ele>328</ele>
        <time>2018-02-14T09:40:56Z</time>
      </trkpt>
      <trkpt lat="47.12505" lon="5.47099">
        <ele>328</ele>
        <time>2018-02-14T09:41:05Z</time>
      </trkpt>
      <trkpt lat="47.12503" lon="5.47042">
        <ele>321</ele>
        <time>2018-02-14T09:41:38Z</time>
      </trkpt>
      <trkpt lat="47.12504" lon="5.47028">
        <ele>319</ele>
        <time>2018-02-14T09:41:46Z</time>
      </trkpt>
      <trkpt lat="47.12505" lon="5.4702">
        <ele>318</ele>
        <time>2018-02-14T09:41:52Z</time>
      </trkpt>
      <trkpt lat="47.12508" lon="5.47015">
        <ele>318</ele>
        <time>2018-02-14T09:41:55Z</time>
      </trkpt>
      <trkpt lat="47.12509" lon="5.46992">
        <ele>315</ele>
        <time>2018-02-14T09:42:09Z</time>
      </trkpt>
      <trkpt lat="47.12509" lon="5.46985">
        <ele>315</ele>
        <time>2018-02-14T09:42:13Z</time>
      </trkpt>
      <trkpt lat="47.12505" lon="5.46963">
        <ele>314</ele>
        <time>2018-02-14T09:42:25Z</time>
      </trkpt>
      <trkpt lat="47.12504" lon="5.46956">
        <ele>314</ele>
        <time>2018-02-14T09:42:29Z</time>
      </trkpt>
      <trkpt lat="47.12501" lon="5.46949">
        <ele>314</ele>
        <time>2018-02-14T09:42:33Z</time>
      </trkpt>
      <trkpt lat="47.12491" lon="5.46889">
        <ele>309</ele>
        <time>2018-02-14T09:43:07Z</time>
      </trkpt>
      <trkpt lat="47.12489" lon="5.46875">
        <ele>309</ele>
        <time>2018-02-14T09:43:15Z</time>
      </trkpt>
      <trkpt lat="47.12488" lon="5.46868">
        <ele>308</ele>
        <time>2018-02-14T09:43:20Z</time>
      </trkpt>
      <trkpt lat="47.12487" lon="5.4686">
        <ele>308</ele>
        <time>2018-02-14T09:43:25Z</time>
      </trkpt>
      <trkpt lat="47.12486" lon="5.46839">
        <ele>305</ele>
        <time>2018-02-14T09:43:38Z</time>
      </trkpt>
      <trkpt lat="47.12487" lon="5.46831">
        <ele>305</ele>
        <time>2018-02-14T09:43:43Z</time>
      </trkpt>
      <trkpt lat="47.12488" lon="5.46823">
        <ele>305</ele>
        <time>2018-02-14T09:43:48Z</time>
      </trkpt>
      <trkpt lat="47.12489" lon="5.46809">
        <ele>303</ele>
        <time>2018-02-14T09:43:56Z</time>
      </trkpt>
      <trkpt lat="47.12489" lon="5.46802">
        <ele>302</ele>
        <time>2018-02-14T09:44:00Z</time>
      </trkpt>
      <trkpt lat="47.1249" lon="5.46787">
        <ele>301</ele>
        <time>2018-02-14T09:44:08Z</time>
      </trkpt>
      <trkpt lat="47.12488" lon="5.4675">
        <ele>298</ele>
        <time>2018-02-14T09:44:28Z</time>
      </trkpt>
      <trkpt lat="47.1249" lon="5.46729">
        <ele>296</ele>
        <time>2018-02-14T09:44:40Z</time>
      </trkpt>
      <trkpt lat="47.12493" lon="5.46716">
        <ele>293</ele>
        <time>2018-02-14T09:44:48Z</time>
      </trkpt>
      <trkpt lat="47.12491" lon="5.46702">
        <ele>291</ele>
        <time>2018-02-14T09:44:56Z</time>
      </trkpt>
      <trkpt lat="47.12493" lon="5.46673">
        <ele>289</ele>
        <time>2018-02-14T09:45:12Z</time>
      </trkpt>
      <trkpt lat="47.12496" lon="5.4666">
        <ele>287</ele>
        <time>2018-02-14T09:45:19Z</time>
      </trkpt>
      <trkpt lat="47.12496" lon="5.46647">
        <ele>286</ele>
        <time>2018-02-14T09:45:27Z</time>
      </trkpt>
      <trkpt lat="47.12481" lon="5.4659">
        <ele>283</ele>
        <time>2018-02-14T09:46:01Z</time>
      </trkpt>
      <trkpt lat="47.12468" lon="5.46539">
        <ele>280</ele>
        <time>2018-02-14T09:46:32Z</time>
      </trkpt>
      <trkpt lat="47.12468" lon="5.46485">
        <ele>276</ele>
        <time>2018-02-14T09:47:00Z</time>
      </trkpt>
      <trkpt lat="47.12463" lon="5.46465">
        <ele>275</ele>
        <time>2018-02-14T09:47:12Z</time>
      </trkpt>
      <trkpt lat="47.12457" lon="5.46455">
        <ele>275</ele>
        <time>2018-02-14T09:47:19Z</time>
      </trkpt>
      <trkpt lat="47.12451" lon="5.46443">
        <ele>274</ele>
        <time>2018-02-14T09:47:27Z</time>
      </trkpt>
      <trkpt lat="47.12418" lon="5.46409">
        <ele>272</ele>
        <time>2018-02-14T09:47:59Z</time>
      </trkpt>
      <trkpt lat="47.12415" lon="5.46402">
        <ele>272</ele>
        <time>2018-02-14T09:48:04Z</time>
      </trkpt>
      <trkpt lat="47.12415" lon="5.46395">
        <ele>272</ele>
        <time>2018-02-14T09:48:09Z</time>
      </trkpt>
      <trkpt lat="47.12415" lon="5.46387">
        <ele>272</ele>
        <time>2018-02-14T09:48:14Z</time>
      </trkpt>
      <trkpt lat="47.12417" lon="5.46381">
        <ele>271</ele>
        <time>2018-02-14T09:48:18Z</time>
      </trkpt>
      <trkpt lat="47.12422" lon="5.46369">
        <ele>271</ele>
        <time>2018-02-14T09:48:26Z</time>
      </trkpt>
      <trkpt lat="47.12424" lon="5.46363">
        <ele>271</ele>
        <time>2018-02-14T09:48:31Z</time>
      </trkpt>
      <trkpt lat="47.12426" lon="5.46357">
        <ele>270</ele>
        <time>2018-02-14T09:50:12Z</time>
      </trkpt>
      <trkpt lat="47.12429" lon="5.46349">
        <ele>270</ele>
        <time>2018-02-14T09:50:17Z</time>
      </trkpt>
      <trkpt lat="47.12438" lon="5.46345">
        <ele>269</ele>
        <time>2018-02-14T09:50:30Z</time>
      </trkpt>
      <trkpt lat="47.12447" lon="5.4634">
        <ele>267</ele>
        <time>2018-02-14T09:50:41Z</time>
      </trkpt>
      <trkpt lat="47.12455" lon="5.46334">
        <ele>267</ele>
        <time>2018-02-14T09:50:49Z</time>
      </trkpt>
      <trkpt lat="47.12459" lon="5.46321">
        <ele>264</ele>
        <time>2018-02-14T09:50:59Z</time>
      </trkpt>
      <trkpt lat="47.12455" lon="5.46308">
        <ele>262</ele>
        <time>2018-02-14T09:51:10Z</time>
      </trkpt>
      <trkpt lat="47.12447" lon="5.46302">
        <ele>260</ele>
        <time>2018-02-14T09:51:17Z</time>
      </trkpt>
      <trkpt lat="47.12443" lon="5.46289">
        <ele>259</ele>
        <time>2018-02-14T09:51:25Z</time>
      </trkpt>
      <trkpt lat="47.12441" lon="5.46261">
        <ele>257</ele>
        <time>2018-02-14T09:51:40Z</time>
      </trkpt>
      <trkpt lat="47.12444" lon="5.46249">
        <ele>256</ele>
        <time>2018-02-14T09:51:46Z</time>
      </trkpt>
      <trkpt lat="47.12441" lon="5.46243">
        <ele>256</ele>
        <time>2018-02-14T09:51:49Z</time>
      </trkpt>
      <trkpt lat="47.1241" lon="5.46206">
        <ele>251</ele>
        <time>2018-02-14T09:52:22Z</time>
      </trkpt>
      <trkpt lat="47.12378" lon="5.46169">
        <ele>249</ele>
        <time>2018-02-14T09:52:56Z</time>
      </trkpt>
      <trkpt lat="47.12365" lon="5.46148">
        <ele>248</ele>
        <time>2018-02-14T09:53:23Z</time>
      </trkpt>
      <trkpt lat="47.12361" lon="5.46145">
        <ele>247</ele>
        <time>2018-02-14T09:53:41Z</time>
      </trkpt>
      <trkpt lat="47.12357" lon="5.46139">
        <ele>246</ele>
        <time>2018-02-14T09:53:45Z</time>
      </trkpt>
      <trkpt lat="47.12354" lon="5.46133">
        <ele>246</ele>
        <time>2018-02-14T09:53:49Z</time>
      </trkpt>
      <trkpt lat="47.12348" lon="5.46123">
        <ele>247</ele>
        <time>2018-02-14T09:53:58Z</time>
      </trkpt>
      <trkpt lat="47.12339" lon="5.46112">
        <ele>247</ele>
        <time>2018-02-14T09:54:06Z</time>
      </trkpt>
      <trkpt lat="47.12332" lon="5.46101">
        <ele>247</ele>
        <time>2018-02-14T09:54:14Z</time>
      </trkpt>
      <trkpt lat="47.12327" lon="5.46097">
        <ele>246</ele>
        <time>2018-02-14T09:54:19Z</time>
      </trkpt>
      <trkpt lat="47.12314" lon="5.46063">
        <ele>247</ele>
        <time>2018-02-14T09:54:39Z</time>
      </trkpt>
      <trkpt lat="47.12303" lon="5.4602">
        <ele>244</ele>
        <time>2018-02-14T09:55:02Z</time>
      </trkpt>
      <trkpt lat="47.12302" lon="5.46012">
        <ele>244</ele>
        <time>2018-02-14T09:55:06Z</time>
      </trkpt>
      <trkpt lat="47.12302" lon="5.45991">
        <ele>244</ele>
        <time>2018-02-14T09:55:17Z</time>
      </trkpt>
      <trkpt lat="47.12301" lon="5.45984">
        <ele>244</ele>
        <time>2018-02-14T09:55:21Z</time>
      </trkpt>
      <trkpt lat="47.12302" lon="5.45975">
        <ele>243</ele>
        <time>2018-02-14T09:55:26Z</time>
      </trkpt>
      <trkpt lat="47.12303" lon="5.45968">
        <ele>243</ele>
        <time>2018-02-14T09:55:31Z</time>
      </trkpt>
      <trkpt lat="47.12297" lon="5.45945">
        <ele>241</ele>
        <time>2018-02-14T09:55:52Z</time>
      </trkpt>
      <trkpt lat="47.12293" lon="5.4594">
        <ele>241</ele>
        <time>2018-02-14T09:55:56Z</time>
      </trkpt>
      <trkpt lat="47.12283" lon="5.45933">
        <ele>242</ele>
        <time>2018-02-14T09:56:04Z</time>
      </trkpt>
      <trkpt lat="47.12277" lon="5.45922">
        <ele>243</ele>
        <time>2018-02-14T09:56:13Z</time>
      </trkpt>
      <trkpt lat="47.12272" lon="5.45902">
        <ele>244</ele>
        <time>2018-02-14T09:56:27Z</time>
      </trkpt>
      <trkpt lat="47.12271" lon="5.45896">
        <ele>244</ele>
        <time>2018-02-14T09:56:32Z</time>
      </trkpt>
      <trkpt lat="47.12269" lon="5.45887">
        <ele>245</ele>
        <time>2018-02-14T09:56:46Z</time>
      </trkpt>
      <trkpt lat="47.12272" lon="5.4588">
        <ele>245</ele>
        <time>2018-02-14T09:56:50Z</time>
      </trkpt>
      <trkpt lat="47.1231" lon="5.45852">
        <ele>246</ele>
        <time>2018-02-14T09:57:23Z</time>
      </trkpt>
      <trkpt lat="47.1235" lon="5.45821">
        <ele>247</ele>
        <time>2018-02-14T09:58:00Z</time>
      </trkpt>
      <trkpt lat="47.12384" lon="5.45794">
        <ele>246</ele>
        <time>2018-02-14T09:58:31Z</time>
      </trkpt>
      <trkpt lat="47.12393" lon="5.45787">
        <ele>246</ele>
        <time>2018-02-14T09:58:37Z</time>
      </trkpt>
      <trkpt lat="47.1242" lon="5.45773">
        <ele>245</ele>
        <time>2018-02-14T09:59:00Z</time>
      </trkpt>
      <trkpt lat="47.12437" lon="5.45761">
        <ele>245</ele>
        <time>2018-02-14T09:59:18Z</time>
      </trkpt>
      <trkpt lat="47.12455" lon="5.45751">
        <ele>244</ele>
        <time>2018-02-14T09:59:30Z</time>
      </trkpt>
      <trkpt lat="47.12466" lon="5.45739">
        <ele>244</ele>
        <time>2018-02-14T09:59:42Z</time>
      </trkpt>
      <trkpt lat="47.12472" lon="5.45735">
        <ele>242</ele>
        <time>2018-02-14T10:00:07Z</time>
      </trkpt>
      <trkpt lat="47.12482" lon="5.4574">
        <ele>241</ele>
        <time>2018-02-14T10:00:15Z</time>
      </trkpt>
      <trkpt lat="47.12478" lon="5.45736">
        <ele>240</ele>
        <time>2018-02-14T10:00:21Z</time>
      </trkpt>
      <trkpt lat="47.12468" lon="5.45733">
        <ele>240</ele>
        <time>2018-02-14T10:00:29Z</time>
      </trkpt>
      <trkpt lat="47.12472" lon="5.4574">
        <ele>240</ele>
        <time>2018-02-14T10:01:05Z</time>
      </trkpt>
      <trkpt lat="47.12483" lon="5.45743">
        <ele>239</ele>
        <time>2018-02-14T10:01:13Z</time>
      </trkpt>
      <trkpt lat="47.12488" lon="5.45747">
        <ele>238</ele>
        <time>2018-02-14T10:01:18Z</time>
      </trkpt>
      <trkpt lat="47.125" lon="5.45757">
        <ele>237</ele>
        <time>2018-02-14T10:01:32Z</time>
      </trkpt>
      <trkpt lat="47.12506" lon="5.45758">
        <ele>237</ele>
        <time>2018-02-14T10:01:36Z</time>
      </trkpt>
      <trkpt lat="47.1251" lon="5.45755">
        <ele>236</ele>
        <time>2018-02-14T10:01:39Z</time>
      </trkpt>
      <trkpt lat="47.12543" lon="5.45709">
        <ele>233</ele>
        <time>2018-02-14T10:02:13Z</time>
      </trkpt>
      <trkpt lat="47.12545" lon="5.45703">
        <ele>233</ele>
        <time>2018-02-14T10:02:18Z</time>
      </trkpt>
      <trkpt lat="47.12558" lon="5.45691">
        <ele>233</ele>
        <time>2018-02-14T10:02:29Z</time>
      </trkpt>
      <trkpt lat="47.12567" lon="5.45684">
        <ele>232</ele>
        <time>2018-02-14T10:02:34Z</time>
      </trkpt>
      <trkpt lat="47.12569" lon="5.45677">
        <ele>232</ele>
        <time>2018-02-14T10:02:38Z</time>
      </trkpt>
      <trkpt lat="47.12574" lon="5.45658">
        <ele>231</ele>
        <time>2018-02-14T10:02:50Z</time>
      </trkpt>
      <trkpt lat="47.12575" lon="5.45644">
        <ele>231</ele>
        <time>2018-02-14T10:02:59Z</time>
      </trkpt>
      <trkpt lat="47.12589" lon="5.45606">
        <ele>230</ele>
        <time>2018-02-14T10:03:23Z</time>
      </trkpt>
      <trkpt lat="47.12592" lon="5.45579">
        <ele>230</ele>
        <time>2018-02-14T10:03:38Z</time>
      </trkpt>
      <trkpt lat="47.12609" lon="5.45527">
        <ele>228</ele>
        <time>2018-02-14T10:04:06Z</time>
      </trkpt>
      <trkpt lat="47.12606" lon="5.45513">
        <ele>228</ele>
        <time>2018-02-14T10:04:13Z</time>
      </trkpt>
      <trkpt lat="47.12589" lon="5.45496">
        <ele>227</ele>
        <time>2018-02-14T10:04:27Z</time>
      </trkpt>
      <trkpt lat="47.12573" lon="5.45461">
        <ele>226</ele>
        <time>2018-02-14T10:04:49Z</time>
      </trkpt>
      <trkpt lat="47.12572" lon="5.45432">
        <ele>226</ele>
        <time>2018-02-14T10:05:05Z</time>
      </trkpt>
      <trkpt lat="47.12574" lon="5.45419">
        <ele>227</ele>
        <time>2018-02-14T10:05:12Z</time>
      </trkpt>
      <trkpt lat="47.12573" lon="5.45405">
        <ele>228</ele>
        <time>2018-02-14T10:05:20Z</time>
      </trkpt>
      <trkpt lat="47.12566" lon="5.45384">
        <ele>228</ele>
        <time>2018-02-14T10:05:32Z</time>
      </trkpt>
      <trkpt lat="47.12565" lon="5.45376">
        <ele>228</ele>
        <time>2018-02-14T10:05:36Z</time>
      </trkpt>
      <trkpt lat="47.12555" lon="5.45359">
        <ele>229</ele>
        <time>2018-02-14T10:05:47Z</time>
      </trkpt>
      <trkpt lat="47.1255" lon="5.45356">
        <ele>229</ele>
        <time>2018-02-14T10:05:51Z</time>
      </trkpt>
      <trkpt lat="47.12532" lon="5.45329">
        <ele>229</ele>
        <time>2018-02-14T10:06:11Z</time>
      </trkpt>
      <trkpt lat="47.12524" lon="5.45317">
        <ele>230</ele>
        <time>2018-02-14T10:06:19Z</time>
      </trkpt>
      <trkpt lat="47.12512" lon="5.45296">
        <ele>229</ele>
        <time>2018-02-14T10:06:33Z</time>
      </trkpt>
      <trkpt lat="47.12504" lon="5.45289">
        <ele>229</ele>
        <time>2018-02-14T10:06:40Z</time>
      </trkpt>
      <trkpt lat="47.12496" lon="5.45297">
        <ele>229</ele>
        <time>2018-02-14T10:06:48Z</time>
      </trkpt>
      <trkpt lat="47.12483" lon="5.45318">
        <ele>227</ele>
        <time>2018-02-14T10:07:04Z</time>
      </trkpt>
      <trkpt lat="47.1248" lon="5.45324">
        <ele>227</ele>
        <time>2018-02-14T10:07:08Z</time>
      </trkpt>
      <trkpt lat="47.12472" lon="5.45334">
        <ele>227</ele>
        <time>2018-02-14T10:07:16Z</time>
      </trkpt>
      <trkpt lat="47.12468" lon="5.45339">
        <ele>227</ele>
        <time>2018-02-14T10:07:20Z</time>
      </trkpt>
      <trkpt lat="47.12464" lon="5.45344">
        <ele>226</ele>
        <time>2018-02-14T10:07:24Z</time>
      </trkpt>
      <trkpt lat="47.1246" lon="5.4535">
        <ele>226</ele>
        <time>2018-02-14T10:07:28Z</time>
      </trkpt>
      <trkpt lat="47.12454" lon="5.45361">
        <ele>226</ele>
        <time>2018-02-14T10:07:36Z</time>
      </trkpt>
      <trkpt lat="47.12447" lon="5.45372">
        <ele>226</ele>
        <time>2018-02-14T10:07:44Z</time>
      </trkpt>
      <trkpt lat="47.12441" lon="5.45384">
        <ele>226</ele>
        <time>2018-02-14T10:07:53Z</time>
      </trkpt>
      <trkpt lat="47.12438" lon="5.45389">
        <ele>227</ele>
        <time>2018-02-14T10:07:58Z</time>
      </trkpt>
      <trkpt lat="47.12416" lon="5.45419">
        <ele>230</ele>
        <time>2018-02-14T10:08:22Z</time>
      </trkpt>
      <trkpt lat="47.12398" lon="5.45431">
        <ele>234</ele>
        <time>2018-02-14T10:08:39Z</time>
      </trkpt>
      <trkpt lat="47.1237" lon="5.4547">
        <ele>239</ele>
        <time>2018-02-14T10:09:13Z</time>
      </trkpt>
      <trkpt lat="47.12364" lon="5.45482">
        <ele>240</ele>
        <time>2018-02-14T10:09:23Z</time>
      </trkpt>
      <trkpt lat="47.12358" lon="5.45491">
        <ele>241</ele>
        <time>2018-02-14T10:09:30Z</time>
      </trkpt>
      <trkpt lat="47.12344" lon="5.4551">
        <ele>242</ele>
        <time>2018-02-14T10:09:49Z</time>
      </trkpt>
      <trkpt lat="47.12335" lon="5.45513">
        <ele>242</ele>
        <time>2018-02-14T10:09:58Z</time>
      </trkpt>
      <trkpt lat="47.12293" lon="5.45544">
        <ele>244</ele>
        <time>2018-02-14T10:10:36Z</time>
      </trkpt>
      <trkpt lat="47.12258" lon="5.45565">
        <ele>245</ele>
        <time>2018-02-14T10:11:12Z</time>
      </trkpt>
      <trkpt lat="47.12241" lon="5.45576">
        <ele>246</ele>
        <time>2018-02-14T10:11:29Z</time>
      </trkpt>
      <trkpt lat="47.12198" lon="5.45599">
        <ele>248</ele>
        <time>2018-02-14T10:12:07Z</time>
      </trkpt>
      <trkpt lat="47.12167" lon="5.4563">
        <ele>249</ele>
        <time>2018-02-14T10:12:40Z</time>
      </trkpt>
      <trkpt lat="47.12144" lon="5.45654">
        <ele>250</ele>
        <time>2018-02-14T10:13:05Z</time>
      </trkpt>
      <trkpt lat="47.12124" lon="5.45686">
        <ele>255</ele>
        <time>2018-02-14T10:13:36Z</time>
      </trkpt>
      <trkpt lat="47.12116" lon="5.45694">
        <ele>256</ele>
        <time>2018-02-14T10:13:46Z</time>
      </trkpt>
      <trkpt lat="47.12109" lon="5.45709">
        <ele>258</ele>
        <time>2018-02-14T10:14:05Z</time>
      </trkpt>
      <trkpt lat="47.12105" lon="5.45735">
        <ele>261</ele>
        <time>2018-02-14T10:14:27Z</time>
      </trkpt>
      <trkpt lat="47.12107" lon="5.45749">
        <ele>262</ele>
        <time>2018-02-14T10:14:41Z</time>
      </trkpt>
      <trkpt lat="47.12104" lon="5.45776">
        <ele>265</ele>
        <time>2018-02-14T10:15:00Z</time>
      </trkpt>
      <trkpt lat="47.12105" lon="5.45789">
        <ele>267</ele>
        <time>2018-02-14T10:15:09Z</time>
      </trkpt>
      <trkpt lat="47.12097" lon="5.45797">
        <ele>268</ele>
        <time>2018-02-14T10:15:18Z</time>
      </trkpt>
      <trkpt lat="47.12088" lon="5.45801">
        <ele>268</ele>
        <time>2018-02-14T10:15:30Z</time>
      </trkpt>
      <trkpt lat="47.12081" lon="5.45792">
        <ele>269</ele>
        <time>2018-02-14T10:15:46Z</time>
      </trkpt>
      <trkpt lat="47.12072" lon="5.45785">
        <ele>269</ele>
        <time>2018-02-14T10:15:54Z</time>
      </trkpt>
      <trkpt lat="47.12063" lon="5.45786">
        <ele>269</ele>
        <time>2018-02-14T10:16:02Z</time>
      </trkpt>
      <trkpt lat="47.12055" lon="5.45778">
        <ele>270</ele>
        <time>2018-02-14T10:16:12Z</time>
      </trkpt>
      <trkpt lat="47.12027" lon="5.45766">
        <ele>272</ele>
        <time>2018-02-14T10:16:38Z</time>
      </trkpt>
      <trkpt lat="47.12018" lon="5.45762">
        <ele>274</ele>
        <time>2018-02-14T10:16:47Z</time>
      </trkpt>
      <trkpt lat="47.12001" lon="5.45747">
        <ele>276</ele>
        <time>2018-02-14T10:17:05Z</time>
      </trkpt>
      <trkpt lat="47.11992" lon="5.45747">
        <ele>276</ele>
        <time>2018-02-14T10:17:13Z</time>
      </trkpt>
      <trkpt lat="47.11985" lon="5.45744">
        <ele>277</ele>
        <time>2018-02-14T10:17:23Z</time>
      </trkpt>
      <trkpt lat="47.11981" lon="5.45749">
        <ele>277</ele>
        <time>2018-02-14T10:17:28Z</time>
      </trkpt>
      <trkpt lat="47.11957" lon="5.45754">
        <ele>279</ele>
        <time>2018-02-14T10:17:53Z</time>
      </trkpt>
      <trkpt lat="47.11951" lon="5.45753">
        <ele>280</ele>
        <time>2018-02-14T10:17:58Z</time>
      </trkpt>
      <trkpt lat="47.11942" lon="5.45754">
        <ele>281</ele>
        <time>2018-02-14T10:18:06Z</time>
      </trkpt>
      <trkpt lat="47.11928" lon="5.45749">
        <ele>281</ele>
        <time>2018-02-14T10:18:19Z</time>
      </trkpt>
      <trkpt lat="47.11918" lon="5.45748">
        <ele>283</ele>
        <time>2018-02-14T10:18:30Z</time>
      </trkpt>
      <trkpt lat="47.11913" lon="5.45747">
        <ele>284</ele>
        <time>2018-02-14T10:18:35Z</time>
      </trkpt>
      <trkpt lat="47.11907" lon="5.45744">
        <ele>284</ele>
        <time>2018-02-14T10:18:39Z</time>
      </trkpt>
      <trkpt lat="47.11903" lon="5.45744">
        <ele>285</ele>
        <time>2018-02-14T10:18:43Z</time>
      </trkpt>
      <trkpt lat="47.11897" lon="5.45743">
        <ele>285</ele>
        <time>2018-02-14T10:18:49Z</time>
      </trkpt>
      <trkpt lat="47.11893" lon="5.45746">
        <ele>285</ele>
        <time>2018-02-14T10:18:54Z</time>
      </trkpt>
      <trkpt lat="47.11885" lon="5.45756">
        <ele>286</ele>
        <time>2018-02-14T10:19:05Z</time>
      </trkpt>
      <trkpt lat="47.1188" lon="5.45759">
        <ele>286</ele>
        <time>2018-02-14T10:19:10Z</time>
      </trkpt>
      <trkpt lat="47.11875" lon="5.4576">
        <ele>287</ele>
        <time>2018-02-14T10:19:17Z</time>
      </trkpt>
      <trkpt lat="47.11871" lon="5.45764">
        <ele>288</ele>
        <time>2018-02-14T10:19:22Z</time>
      </trkpt>
      <trkpt lat="47.11853" lon="5.45775">
        <ele>288</ele>
        <time>2018-02-14T10:19:39Z</time>
      </trkpt>
      <trkpt lat="47.11848" lon="5.45777">
        <ele>289</ele>
        <time>2018-02-14T10:19:44Z</time>
      </trkpt>
      <trkpt lat="47.11844" lon="5.45781">
        <ele>289</ele>
        <time>2018-02-14T10:19:49Z</time>
      </trkpt>
      <trkpt lat="47.11821" lon="5.45794">
        <ele>290</ele>
        <time>2018-02-14T10:20:11Z</time>
      </trkpt>
      <trkpt lat="47.11821" lon="5.45807">
        <ele>292</ele>
        <time>2018-02-14T10:22:40Z</time>
      </trkpt>
      <trkpt lat="47.11827" lon="5.45819">
        <ele>292</ele>
        <time>2018-02-14T10:22:50Z</time>
      </trkpt>
      <trkpt lat="47.11836" lon="5.45825">
        <ele>291</ele>
        <time>2018-02-14T10:23:01Z</time>
      </trkpt>
      <trkpt lat="47.11841" lon="5.45828">
        <ele>291</ele>
        <time>2018-02-14T10:23:07Z</time>
      </trkpt>
      <trkpt lat="47.11844" lon="5.45841">
        <ele>291</ele>
        <time>2018-02-14T10:23:16Z</time>
      </trkpt>
      <trkpt lat="47.11848" lon="5.45843">
        <ele>291</ele>
        <time>2018-02-14T10:23:23Z</time>
      </trkpt>
      <trkpt lat="47.11852" lon="5.45848">
        <ele>291</ele>
        <time>2018-02-14T10:23:32Z</time>
      </trkpt>
      <trkpt lat="47.11849" lon="5.45863">
        <ele>291</ele>
        <time>2018-02-14T10:24:12Z</time>
      </trkpt>
      <trkpt lat="47.11857" lon="5.4587">
        <ele>288</ele>
        <time>2018-02-14T10:24:42Z</time>
      </trkpt>
      <trkpt lat="47.11848" lon="5.45878">
        <ele>288</ele>
        <time>2018-02-14T10:25:52Z</time>
      </trkpt>
      <trkpt lat="47.11839" lon="5.45881">
        <ele>289</ele>
        <time>2018-02-14T10:26:05Z</time>
      </trkpt>
      <trkpt lat="47.11835" lon="5.45893">
        <ele>289</ele>
        <time>2018-02-14T10:26:28Z</time>
      </trkpt>
      <trkpt lat="47.11833" lon="5.45907">
        <ele>289</ele>
        <time>2018-02-14T10:26:42Z</time>
      </trkpt>
      <trkpt lat="47.11828" lon="5.45918">
        <ele>289</ele>
        <time>2018-02-14T10:26:57Z</time>
      </trkpt>
      <trkpt lat="47.11823" lon="5.45951">
        <ele>287</ele>
        <time>2018-02-14T10:27:36Z</time>
      </trkpt>
      <trkpt lat="47.11819" lon="5.45967">
        <ele>283</ele>
        <time>2018-02-14T10:28:31Z</time>
      </trkpt>
      <trkpt lat="47.11815" lon="5.45975">
        <ele>281</ele>
        <time>2018-02-14T10:29:14Z</time>
      </trkpt>
      <trkpt lat="47.11818" lon="5.45989">
        <ele>279</ele>
        <time>2018-02-14T10:29:51Z</time>
      </trkpt>
      <trkpt lat="47.1183" lon="5.45981">
        <ele>278</ele>
        <time>2018-02-14T10:30:37Z</time>
      </trkpt>
      <trkpt lat="47.11834" lon="5.45964">
        <ele>278</ele>
        <time>2018-02-14T10:30:56Z</time>
      </trkpt>
      <trkpt lat="47.1183" lon="5.45949">
        <ele>280</ele>
        <time>2018-02-14T10:31:32Z</time>
      </trkpt>
      <trkpt lat="47.11838" lon="5.45943">
        <ele>281</ele>
        <time>2018-02-14T10:31:39Z</time>
      </trkpt>
      <trkpt lat="47.11845" lon="5.45935">
        <ele>282</ele>
        <time>2018-02-14T10:31:52Z</time>
      </trkpt>
      <trkpt lat="47.11851" lon="5.45925">
        <ele>283</ele>
        <time>2018-02-14T10:32:03Z</time>
      </trkpt>
      <trkpt lat="47.11846" lon="5.45913">
        <ele>284</ele>
        <time>2018-02-14T10:32:13Z</time>
      </trkpt>
      <trkpt lat="47.11849" lon="5.459">
        <ele>285</ele>
        <time>2018-02-14T10:32:23Z</time>
      </trkpt>
      <trkpt lat="47.11853" lon="5.45888">
        <ele>286</ele>
        <time>2018-02-14T10:32:36Z</time>
      </trkpt>
      <trkpt lat="47.11855" lon="5.45875">
        <ele>287</ele>
        <time>2018-02-14T10:32:50Z</time>
      </trkpt>
      <trkpt lat="47.11851" lon="5.45862">
        <ele>288</ele>
        <time>2018-02-14T10:33:03Z</time>
      </trkpt>
      <trkpt lat="47.11852" lon="5.45848">
        <ele>288</ele>
        <time>2018-02-14T10:33:17Z</time>
      </trkpt>
      <trkpt lat="47.1183" lon="5.4582">
        <ele>291</ele>
        <time>2018-02-14T10:33:49Z</time>
      </trkpt>
      <trkpt lat="47.11824" lon="5.4581">
        <ele>292</ele>
        <time>2018-02-14T10:33:55Z</time>
      </trkpt>
      <trkpt lat="47.1182" lon="5.45807">
        <ele>292</ele>
        <time>2018-02-14T10:33:59Z</time>
      </trkpt>
      <trkpt lat="47.11817" lon="5.458">
        <ele>293</ele>
        <time>2018-02-14T10:34:05Z</time>
      </trkpt>
      <trkpt lat="47.11804" lon="5.45786">
        <ele>293</ele>
        <time>2018-02-14T10:34:17Z</time>
      </trkpt>
      <trkpt lat="47.11792" lon="5.45771">
        <ele>293</ele>
        <time>2018-02-14T10:34:30Z</time>
      </trkpt>
      <trkpt lat="47.11771" lon="5.45764">
        <ele>294</ele>
        <time>2018-02-14T10:34:45Z</time>
      </trkpt>
      <trkpt lat="47.11737" lon="5.45747">
        <ele>296</ele>
        <time>2018-02-14T10:35:12Z</time>
      </trkpt>
      <trkpt lat="47.11733" lon="5.45746">
        <ele>296</ele>
        <time>2018-02-14T10:35:15Z</time>
      </trkpt>
      <trkpt lat="47.11728" lon="5.45742">
        <ele>297</ele>
        <time>2018-02-14T10:35:20Z</time>
      </trkpt>
      <trkpt lat="47.11721" lon="5.45731">
        <ele>297</ele>
        <time>2018-02-14T10:35:28Z</time>
      </trkpt>
      <trkpt lat="47.11704" lon="5.45715">
        <ele>298</ele>
        <time>2018-02-14T10:35:44Z</time>
      </trkpt>
      <trkpt lat="47.117" lon="5.4571">
        <ele>297</ele>
        <time>2018-02-14T10:35:48Z</time>
      </trkpt>
      <trkpt lat="47.11697" lon="5.45707">
        <ele>297</ele>
        <time>2018-02-14T10:35:53Z</time>
      </trkpt>
      <trkpt lat="47.11687" lon="5.45699">
        <ele>298</ele>
        <time>2018-02-14T10:36:01Z</time>
      </trkpt>
      <trkpt lat="47.1167" lon="5.45681">
        <ele>298</ele>
        <time>2018-02-14T10:36:17Z</time>
      </trkpt>
      <trkpt lat="47.11647" lon="5.45658">
        <ele>296</ele>
        <time>2018-02-14T10:36:37Z</time>
      </trkpt>
      <trkpt lat="47.11644" lon="5.45654">
        <ele>296</ele>
        <time>2018-02-14T10:36:41Z</time>
      </trkpt>
      <trkpt lat="47.1164" lon="5.4565">
        <ele>296</ele>
        <time>2018-02-14T10:36:45Z</time>
      </trkpt>
      <trkpt lat="47.11632" lon="5.45642">
        <ele>296</ele>
        <time>2018-02-14T10:36:53Z</time>
      </trkpt>
      <trkpt lat="47.11601" lon="5.45602">
        <ele>291</ele>
        <time>2018-02-14T10:37:27Z</time>
      </trkpt>
      <trkpt lat="47.11597" lon="5.45597">
        <ele>291</ele>
        <time>2018-02-14T10:37:31Z</time>
      </trkpt>
      <trkpt lat="47.11577" lon="5.45587">
        <ele>290</ele>
        <time>2018-02-14T10:37:47Z</time>
      </trkpt>
      <trkpt lat="47.11566" lon="5.45583">
        <ele>290</ele>
        <time>2018-02-14T10:37:56Z</time>
      </trkpt>
      <trkpt lat="47.11561" lon="5.45583">
        <ele>289</ele>
        <time>2018-02-14T10:37:59Z</time>
      </trkpt>
      <trkpt lat="47.11557" lon="5.45586">
        <ele>288</ele>
        <time>2018-02-14T10:38:02Z</time>
      </trkpt>
      <trkpt lat="47.11548" lon="5.45593">
        <ele>286</ele>
        <time>2018-02-14T10:38:09Z</time>
      </trkpt>
      <trkpt lat="47.11542" lon="5.45596">
        <ele>286</ele>
        <time>2018-02-14T10:38:13Z</time>
      </trkpt>
      <trkpt lat="47.11522" lon="5.45609">
        <ele>286</ele>
        <time>2018-02-14T10:38:29Z</time>
      </trkpt>
      <trkpt lat="47.11512" lon="5.45614">
        <ele>285</ele>
        <time>2018-02-14T10:38:37Z</time>
      </trkpt>
      <trkpt lat="47.11504" lon="5.45622">
        <ele>284</ele>
        <time>2018-02-14T10:38:45Z</time>
      </trkpt>
      <trkpt lat="47.11499" lon="5.45623">
        <ele>284</ele>
        <time>2018-02-14T10:38:49Z</time>
      </trkpt>
      <trkpt lat="47.11489" lon="5.45626">
        <ele>283</ele>
        <time>2018-02-14T10:38:57Z</time>
      </trkpt>
      <trkpt lat="47.11483" lon="5.45625">
        <ele>283</ele>
        <time>2018-02-14T10:39:02Z</time>
      </trkpt>
      <trkpt lat="47.11478" lon="5.4562">
        <ele>283</ele>
        <time>2018-02-14T10:39:06Z</time>
      </trkpt>
      <trkpt lat="47.11474" lon="5.45616">
        <ele>283</ele>
        <time>2018-02-14T10:39:10Z</time>
      </trkpt>
      <trkpt lat="47.11459" lon="5.45618">
        <ele>282</ele>
        <time>2018-02-14T10:39:24Z</time>
      </trkpt>
      <trkpt lat="47.11419" lon="5.45632">
        <ele>279</ele>
        <time>2018-02-14T10:39:56Z</time>
      </trkpt>
      <trkpt lat="47.11403" lon="5.45636">
        <ele>279</ele>
        <time>2018-02-14T10:40:08Z</time>
      </trkpt>
      <trkpt lat="47.11399" lon="5.45636">
        <ele>278</ele>
        <time>2018-02-14T10:40:12Z</time>
      </trkpt>
      <trkpt lat="47.1139" lon="5.45629">
        <ele>278</ele>
        <time>2018-02-14T10:40:21Z</time>
      </trkpt>
      <trkpt lat="47.11384" lon="5.45628">
        <ele>275</ele>
        <time>2018-02-14T10:40:43Z</time>
      </trkpt>
      <trkpt lat="47.11374" lon="5.45623">
        <ele>274</ele>
        <time>2018-02-14T10:40:51Z</time>
      </trkpt>
      <trkpt lat="47.11368" lon="5.45621">
        <ele>274</ele>
        <time>2018-02-14T10:40:55Z</time>
      </trkpt>
      <trkpt lat="47.11355" lon="5.45625">
        <ele>273</ele>
        <time>2018-02-14T10:41:04Z</time>
      </trkpt>
      <trkpt lat="47.11349" lon="5.45625">
        <ele>273</ele>
        <time>2018-02-14T10:41:08Z</time>
      </trkpt>
      <trkpt lat="47.11344" lon="5.4563">
        <ele>273</ele>
        <time>2018-02-14T10:41:12Z</time>
      </trkpt>
      <trkpt lat="47.1134" lon="5.45635">
        <ele>273</ele>
        <time>2018-02-14T10:41:16Z</time>
      </trkpt>
      <trkpt lat="47.11338" lon="5.45643">
        <ele>272</ele>
        <time>2018-02-14T10:41:20Z</time>
      </trkpt>
      <trkpt lat="47.11339" lon="5.45663">
        <ele>271</ele>
        <time>2018-02-14T10:41:29Z</time>
      </trkpt>
      <trkpt lat="47.11341" lon="5.45671">
        <ele>270</ele>
        <time>2018-02-14T10:41:32Z</time>
      </trkpt>
      <trkpt lat="47.11353" lon="5.45697">
        <ele>268</ele>
        <time>2018-02-14T10:41:50Z</time>
      </trkpt>
      <trkpt lat="47.11353" lon="5.45705">
        <ele>268</ele>
        <time>2018-02-14T10:41:54Z</time>
      </trkpt>
      <trkpt lat="47.11351" lon="5.45712">
        <ele>268</ele>
        <time>2018-02-14T10:41:58Z</time>
      </trkpt>
      <trkpt lat="47.11348" lon="5.45718">
        <ele>267</ele>
        <time>2018-02-14T10:42:02Z</time>
      </trkpt>
      <trkpt lat="47.11344" lon="5.45724">
        <ele>267</ele>
        <time>2018-02-14T10:42:07Z</time>
      </trkpt>
      <trkpt lat="47.11344" lon="5.45736">
        <ele>267</ele>
        <time>2018-02-14T10:42:52Z</time>
      </trkpt>
      <trkpt lat="47.11347" lon="5.45731">
        <ele>266</ele>
        <time>2018-02-14T10:43:18Z</time>
      </trkpt>
      <trkpt lat="47.11342" lon="5.45725">
        <ele>265</ele>
        <time>2018-02-14T10:43:59Z</time>
      </trkpt>
      <trkpt lat="47.11347" lon="5.45723">
        <ele>265</ele>
        <time>2018-02-14T10:45:14Z</time>
      </trkpt>
    </trkseg>
  </trk>
</gpx>